<?xml version="1.0" encoding="UTF-8" standalone="no" ?>
<gpx xmlns="http://www.topografix.com/GPX/1/1" xmlns:xsi="http://www.w3.org/2001/XMLSchema-instance" xsi:schemaLocation="http://www.topografix.com/GPX/1/1 http://www.topografix.com/GPX/1/1/gpx.xsd" version="1.1" creator="VisuGPX - https://www.visugpx.com">
  <metadata>
    <name>Vtt salagou 24 Avril 2011</name>
    <desc><![CDATA[Vtt salagou 24 Avril 2011]]></desc>
  </metadata>
  <trk>
    <name><![CDATA[Trk1356]]></name>
    <trkseg>
      <trkpt lat="43.64568" lon="3.38792">
        <ele>143</ele>
        <time>2011-04-24T10:51:44Z</time>
      </trkpt>
      <trkpt lat="43.64563" lon="3.38807">
        <ele>143</ele>
        <time>2011-04-24T10:58:33Z</time>
      </trkpt>
      <trkpt lat="43.64538" lon="3.38802">
        <ele>143</ele>
        <time>2011-04-24T10:58:57Z</time>
      </trkpt>
      <trkpt lat="43.64493" lon="3.38788">
        <ele>142</ele>
        <time>2011-04-24T10:59:45Z</time>
      </trkpt>
      <trkpt lat="43.64465" lon="3.38767">
        <ele>142</ele>
        <time>2011-04-24T10:59:54Z</time>
      </trkpt>
      <trkpt lat="43.64348" lon="3.38793">
        <ele>141</ele>
        <time>2011-04-24T11:00:31Z</time>
      </trkpt>
      <trkpt lat="43.64335" lon="3.38757">
        <ele>141</ele>
        <time>2011-04-24T11:00:46Z</time>
      </trkpt>
      <trkpt lat="43.64292" lon="3.387">
        <ele>142</ele>
        <time>2011-04-24T11:01:05Z</time>
      </trkpt>
      <trkpt lat="43.64233" lon="3.38563">
        <ele>144</ele>
        <time>2011-04-24T11:01:48Z</time>
      </trkpt>
      <trkpt lat="43.6424" lon="3.38418">
        <ele>142</ele>
        <time>2011-04-24T11:02:14Z</time>
      </trkpt>
      <trkpt lat="43.64252" lon="3.38348">
        <ele>143</ele>
        <time>2011-04-24T11:02:30Z</time>
      </trkpt>
      <trkpt lat="43.64265" lon="3.38295">
        <ele>142</ele>
        <time>2011-04-24T11:02:47Z</time>
      </trkpt>
      <trkpt lat="43.64315" lon="3.38373">
        <ele>141</ele>
        <time>2011-04-24T11:03:14Z</time>
      </trkpt>
      <trkpt lat="43.64352" lon="3.38385">
        <ele>140</ele>
        <time>2011-04-24T11:03:24Z</time>
      </trkpt>
      <trkpt lat="43.64383" lon="3.38357">
        <ele>139</ele>
        <time>2011-04-24T11:03:34Z</time>
      </trkpt>
      <trkpt lat="43.64395" lon="3.38332">
        <ele>139</ele>
        <time>2011-04-24T11:03:46Z</time>
      </trkpt>
      <trkpt lat="43.64382" lon="3.38145">
        <ele>140</ele>
        <time>2011-04-24T11:04:42Z</time>
      </trkpt>
      <trkpt lat="43.64388" lon="3.38093">
        <ele>139</ele>
        <time>2011-04-24T11:04:59Z</time>
      </trkpt>
      <trkpt lat="43.64417" lon="3.38095">
        <ele>138</ele>
        <time>2011-04-24T11:05:11Z</time>
      </trkpt>
      <trkpt lat="43.64437" lon="3.38075">
        <ele>137</ele>
        <time>2011-04-24T11:05:20Z</time>
      </trkpt>
      <trkpt lat="43.64455" lon="3.37998">
        <ele>137</ele>
        <time>2011-04-24T11:05:38Z</time>
      </trkpt>
      <trkpt lat="43.64453" lon="3.37975">
        <ele>137</ele>
        <time>2011-04-24T11:05:46Z</time>
      </trkpt>
      <trkpt lat="43.64423" lon="3.37975">
        <ele>137</ele>
        <time>2011-04-24T11:05:58Z</time>
      </trkpt>
      <trkpt lat="43.644" lon="3.38007">
        <ele>139</ele>
        <time>2011-04-24T11:06:20Z</time>
      </trkpt>
      <trkpt lat="43.64377" lon="3.38027">
        <ele>139</ele>
        <time>2011-04-24T11:06:35Z</time>
      </trkpt>
      <trkpt lat="43.64365" lon="3.38052">
        <ele>139</ele>
        <time>2011-04-24T11:06:43Z</time>
      </trkpt>
      <trkpt lat="43.64348" lon="3.38">
        <ele>139</ele>
        <time>2011-04-24T11:07:02Z</time>
      </trkpt>
      <trkpt lat="43.64367" lon="3.37952">
        <ele>139</ele>
        <time>2011-04-24T11:07:14Z</time>
      </trkpt>
      <trkpt lat="43.64382" lon="3.37918">
        <ele>138</ele>
        <time>2011-04-24T11:07:23Z</time>
      </trkpt>
      <trkpt lat="43.64382" lon="3.37902">
        <ele>139</ele>
        <time>2011-04-24T11:07:59Z</time>
      </trkpt>
      <trkpt lat="43.64387" lon="3.37877">
        <ele>139</ele>
        <time>2011-04-24T11:08:29Z</time>
      </trkpt>
      <trkpt lat="43.64395" lon="3.37838">
        <ele>139</ele>
        <time>2011-04-24T11:08:39Z</time>
      </trkpt>
      <trkpt lat="43.64412" lon="3.37792">
        <ele>140</ele>
        <time>2011-04-24T11:08:51Z</time>
      </trkpt>
      <trkpt lat="43.64418" lon="3.37752">
        <ele>138</ele>
        <time>2011-04-24T11:09:00Z</time>
      </trkpt>
      <trkpt lat="43.64418" lon="3.37702">
        <ele>138</ele>
        <time>2011-04-24T11:09:11Z</time>
      </trkpt>
      <trkpt lat="43.6443" lon="3.37665">
        <ele>139</ele>
        <time>2011-04-24T11:09:20Z</time>
      </trkpt>
      <trkpt lat="43.64428" lon="3.37638">
        <ele>138</ele>
        <time>2011-04-24T11:09:29Z</time>
      </trkpt>
      <trkpt lat="43.64428" lon="3.37613">
        <ele>138</ele>
        <time>2011-04-24T11:09:38Z</time>
      </trkpt>
      <trkpt lat="43.64452" lon="3.37555">
        <ele>137</ele>
        <time>2011-04-24T11:09:53Z</time>
      </trkpt>
      <trkpt lat="43.64467" lon="3.37477">
        <ele>137</ele>
        <time>2011-04-24T11:10:12Z</time>
      </trkpt>
      <trkpt lat="43.64473" lon="3.37435">
        <ele>137</ele>
        <time>2011-04-24T11:10:20Z</time>
      </trkpt>
      <trkpt lat="43.64468" lon="3.37385">
        <ele>138</ele>
        <time>2011-04-24T11:10:29Z</time>
      </trkpt>
      <trkpt lat="43.64432" lon="3.37315">
        <ele>139</ele>
        <time>2011-04-24T11:10:46Z</time>
      </trkpt>
      <trkpt lat="43.64377" lon="3.37183">
        <ele>142</ele>
        <time>2011-04-24T11:14:28Z</time>
      </trkpt>
      <trkpt lat="43.64365" lon="3.37188">
        <ele>142</ele>
        <time>2011-04-24T11:14:40Z</time>
      </trkpt>
      <trkpt lat="43.64365" lon="3.37157">
        <ele>142</ele>
        <time>2011-04-24T11:17:12Z</time>
      </trkpt>
      <trkpt lat="43.6434" lon="3.37133">
        <ele>142</ele>
        <time>2011-04-24T11:17:25Z</time>
      </trkpt>
      <trkpt lat="43.64315" lon="3.37112">
        <ele>143</ele>
        <time>2011-04-24T11:17:41Z</time>
      </trkpt>
      <trkpt lat="43.64302" lon="3.37048">
        <ele>142</ele>
        <time>2011-04-24T11:18:00Z</time>
      </trkpt>
      <trkpt lat="43.6431" lon="3.37017">
        <ele>141</ele>
        <time>2011-04-24T11:18:09Z</time>
      </trkpt>
      <trkpt lat="43.64303" lon="3.36967">
        <ele>142</ele>
        <time>2011-04-24T11:18:30Z</time>
      </trkpt>
      <trkpt lat="43.64307" lon="3.36858">
        <ele>143</ele>
        <time>2011-04-24T11:18:58Z</time>
      </trkpt>
      <trkpt lat="43.64303" lon="3.36802">
        <ele>142</ele>
        <time>2011-04-24T11:19:12Z</time>
      </trkpt>
      <trkpt lat="43.6429" lon="3.3677">
        <ele>141</ele>
        <time>2011-04-24T11:19:23Z</time>
      </trkpt>
      <trkpt lat="43.64308" lon="3.36687">
        <ele>138</ele>
        <time>2011-04-24T11:19:43Z</time>
      </trkpt>
      <trkpt lat="43.64288" lon="3.36648">
        <ele>138</ele>
        <time>2011-04-24T11:19:57Z</time>
      </trkpt>
      <trkpt lat="43.64282" lon="3.3652">
        <ele>139</ele>
        <time>2011-04-24T11:20:27Z</time>
      </trkpt>
      <trkpt lat="43.64295" lon="3.36427">
        <ele>143</ele>
        <time>2011-04-24T11:20:45Z</time>
      </trkpt>
      <trkpt lat="43.64302" lon="3.36387">
        <ele>146</ele>
        <time>2011-04-24T11:21:02Z</time>
      </trkpt>
      <trkpt lat="43.64303" lon="3.3635">
        <ele>147</ele>
        <time>2011-04-24T11:21:17Z</time>
      </trkpt>
      <trkpt lat="43.64293" lon="3.36308">
        <ele>149</ele>
        <time>2011-04-24T11:21:37Z</time>
      </trkpt>
      <trkpt lat="43.64295" lon="3.36207">
        <ele>153</ele>
        <time>2011-04-24T11:22:15Z</time>
      </trkpt>
      <trkpt lat="43.64318" lon="3.36167">
        <ele>153</ele>
        <time>2011-04-24T11:22:31Z</time>
      </trkpt>
      <trkpt lat="43.64348" lon="3.36153">
        <ele>151</ele>
        <time>2011-04-24T11:22:42Z</time>
      </trkpt>
      <trkpt lat="43.64378" lon="3.36127">
        <ele>151</ele>
        <time>2011-04-24T11:22:53Z</time>
      </trkpt>
      <trkpt lat="43.64415" lon="3.36103">
        <ele>150</ele>
        <time>2011-04-24T11:23:06Z</time>
      </trkpt>
      <trkpt lat="43.64447" lon="3.36065">
        <ele>150</ele>
        <time>2011-04-24T11:23:16Z</time>
      </trkpt>
      <trkpt lat="43.64467" lon="3.36068">
        <ele>149</ele>
        <time>2011-04-24T11:23:25Z</time>
      </trkpt>
      <trkpt lat="43.64537" lon="3.3603">
        <ele>145</ele>
        <time>2011-04-24T11:23:44Z</time>
      </trkpt>
      <trkpt lat="43.64575" lon="3.36018">
        <ele>143</ele>
        <time>2011-04-24T11:23:51Z</time>
      </trkpt>
      <trkpt lat="43.64592" lon="3.3598">
        <ele>143</ele>
        <time>2011-04-24T11:23:58Z</time>
      </trkpt>
      <trkpt lat="43.64638" lon="3.35977">
        <ele>143</ele>
        <time>2011-04-24T11:24:11Z</time>
      </trkpt>
      <trkpt lat="43.6469" lon="3.35967">
        <ele>143</ele>
        <time>2011-04-24T11:24:23Z</time>
      </trkpt>
      <trkpt lat="43.6475" lon="3.35855">
        <ele>144</ele>
        <time>2011-04-24T11:24:49Z</time>
      </trkpt>
      <trkpt lat="43.64782" lon="3.35798">
        <ele>143</ele>
        <time>2011-04-24T11:24:59Z</time>
      </trkpt>
      <trkpt lat="43.64838" lon="3.35773">
        <ele>139</ele>
        <time>2011-04-24T11:25:08Z</time>
      </trkpt>
      <trkpt lat="43.6489" lon="3.35735">
        <ele>138</ele>
        <time>2011-04-24T11:25:18Z</time>
      </trkpt>
      <trkpt lat="43.64925" lon="3.35688">
        <ele>138</ele>
        <time>2011-04-24T11:25:28Z</time>
      </trkpt>
      <trkpt lat="43.6496" lon="3.35672">
        <ele>138</ele>
        <time>2011-04-24T11:25:38Z</time>
      </trkpt>
      <trkpt lat="43.64995" lon="3.35533">
        <ele>137</ele>
        <time>2011-04-24T11:26:09Z</time>
      </trkpt>
      <trkpt lat="43.64958" lon="3.3549">
        <ele>137</ele>
        <time>2011-04-24T11:26:20Z</time>
      </trkpt>
      <trkpt lat="43.64915" lon="3.35445">
        <ele>140</ele>
        <time>2011-04-24T11:26:34Z</time>
      </trkpt>
      <trkpt lat="43.64913" lon="3.3541">
        <ele>139</ele>
        <time>2011-04-24T11:26:42Z</time>
      </trkpt>
      <trkpt lat="43.64937" lon="3.3538">
        <ele>138</ele>
        <time>2011-04-24T11:26:53Z</time>
      </trkpt>
      <trkpt lat="43.64938" lon="3.35333">
        <ele>138</ele>
        <time>2011-04-24T11:27:02Z</time>
      </trkpt>
      <trkpt lat="43.64917" lon="3.35298">
        <ele>138</ele>
        <time>2011-04-24T11:27:11Z</time>
      </trkpt>
      <trkpt lat="43.64918" lon="3.35252">
        <ele>137</ele>
        <time>2011-04-24T11:27:19Z</time>
      </trkpt>
      <trkpt lat="43.64927" lon="3.35215">
        <ele>138</ele>
        <time>2011-04-24T11:27:29Z</time>
      </trkpt>
      <trkpt lat="43.64902" lon="3.35182">
        <ele>140</ele>
        <time>2011-04-24T11:27:40Z</time>
      </trkpt>
      <trkpt lat="43.64873" lon="3.35153">
        <ele>139</ele>
        <time>2011-04-24T11:27:49Z</time>
      </trkpt>
      <trkpt lat="43.64865" lon="3.35103">
        <ele>139</ele>
        <time>2011-04-24T11:27:58Z</time>
      </trkpt>
      <trkpt lat="43.64872" lon="3.35072">
        <ele>139</ele>
        <time>2011-04-24T11:28:03Z</time>
      </trkpt>
      <trkpt lat="43.64852" lon="3.35043">
        <ele>139</ele>
        <time>2011-04-24T11:28:13Z</time>
      </trkpt>
      <trkpt lat="43.64788" lon="3.35042">
        <ele>139</ele>
        <time>2011-04-24T11:28:29Z</time>
      </trkpt>
      <trkpt lat="43.64717" lon="3.35007">
        <ele>140</ele>
        <time>2011-04-24T11:28:47Z</time>
      </trkpt>
      <trkpt lat="43.64695" lon="3.34982">
        <ele>140</ele>
        <time>2011-04-24T11:28:58Z</time>
      </trkpt>
      <trkpt lat="43.64707" lon="3.34948">
        <ele>140</ele>
        <time>2011-04-24T11:29:11Z</time>
      </trkpt>
      <trkpt lat="43.64713" lon="3.34918">
        <ele>140</ele>
        <time>2011-04-24T11:30:27Z</time>
      </trkpt>
      <trkpt lat="43.64728" lon="3.34815">
        <ele>144</ele>
        <time>2011-04-24T11:31:09Z</time>
      </trkpt>
      <trkpt lat="43.64725" lon="3.34777">
        <ele>145</ele>
        <time>2011-04-24T11:31:22Z</time>
      </trkpt>
      <trkpt lat="43.6473" lon="3.34728">
        <ele>146</ele>
        <time>2011-04-24T11:31:35Z</time>
      </trkpt>
      <trkpt lat="43.64722" lon="3.34707">
        <ele>147</ele>
        <time>2011-04-24T11:31:45Z</time>
      </trkpt>
      <trkpt lat="43.64723" lon="3.34675">
        <ele>147</ele>
        <time>2011-04-24T11:31:54Z</time>
      </trkpt>
      <trkpt lat="43.6472" lon="3.34623">
        <ele>148</ele>
        <time>2011-04-24T11:32:09Z</time>
      </trkpt>
      <trkpt lat="43.6473" lon="3.3459">
        <ele>148</ele>
        <time>2011-04-24T11:32:20Z</time>
      </trkpt>
      <trkpt lat="43.64735" lon="3.3442">
        <ele>153</ele>
        <time>2011-04-24T11:33:18Z</time>
      </trkpt>
      <trkpt lat="43.6474" lon="3.34363">
        <ele>154</ele>
        <time>2011-04-24T11:33:37Z</time>
      </trkpt>
      <trkpt lat="43.64753" lon="3.34318">
        <ele>157</ele>
        <time>2011-04-24T11:33:53Z</time>
      </trkpt>
      <trkpt lat="43.64742" lon="3.34255">
        <ele>158</ele>
        <time>2011-04-24T11:34:12Z</time>
      </trkpt>
      <trkpt lat="43.64747" lon="3.3422">
        <ele>159</ele>
        <time>2011-04-24T11:34:28Z</time>
      </trkpt>
      <trkpt lat="43.6475" lon="3.34172">
        <ele>160</ele>
        <time>2011-04-24T11:34:48Z</time>
      </trkpt>
      <trkpt lat="43.64763" lon="3.3413">
        <ele>162</ele>
        <time>2011-04-24T11:35:01Z</time>
      </trkpt>
      <trkpt lat="43.6481" lon="3.3396">
        <ele>159</ele>
        <time>2011-04-24T11:35:47Z</time>
      </trkpt>
      <trkpt lat="43.64818" lon="3.33923">
        <ele>158</ele>
        <time>2011-04-24T11:36:04Z</time>
      </trkpt>
      <trkpt lat="43.64833" lon="3.33883">
        <ele>156</ele>
        <time>2011-04-24T11:36:10Z</time>
      </trkpt>
      <trkpt lat="43.64852" lon="3.33778">
        <ele>153</ele>
        <time>2011-04-24T11:36:37Z</time>
      </trkpt>
      <trkpt lat="43.64858" lon="3.33642">
        <ele>146</ele>
        <time>2011-04-24T11:36:58Z</time>
      </trkpt>
      <trkpt lat="43.64853" lon="3.33597">
        <ele>146</ele>
        <time>2011-04-24T11:37:08Z</time>
      </trkpt>
      <trkpt lat="43.64855" lon="3.33533">
        <ele>145</ele>
        <time>2011-04-24T11:37:21Z</time>
      </trkpt>
      <trkpt lat="43.64848" lon="3.33482">
        <ele>144</ele>
        <time>2011-04-24T11:37:34Z</time>
      </trkpt>
      <trkpt lat="43.64843" lon="3.3342">
        <ele>143</ele>
        <time>2011-04-24T11:37:47Z</time>
      </trkpt>
      <trkpt lat="43.64832" lon="3.33378">
        <ele>143</ele>
        <time>2011-04-24T11:37:56Z</time>
      </trkpt>
      <trkpt lat="43.64832" lon="3.33298">
        <ele>142</ele>
        <time>2011-04-24T11:38:09Z</time>
      </trkpt>
      <trkpt lat="43.64833" lon="3.33245">
        <ele>139</ele>
        <time>2011-04-24T11:38:26Z</time>
      </trkpt>
      <trkpt lat="43.64845" lon="3.33182">
        <ele>137</ele>
        <time>2011-04-24T11:38:41Z</time>
      </trkpt>
      <trkpt lat="43.64832" lon="3.33145">
        <ele>138</ele>
        <time>2011-04-24T11:38:50Z</time>
      </trkpt>
      <trkpt lat="43.64815" lon="3.33117">
        <ele>139</ele>
        <time>2011-04-24T11:39:01Z</time>
      </trkpt>
      <trkpt lat="43.64793" lon="3.33097">
        <ele>139</ele>
        <time>2011-04-24T11:39:12Z</time>
      </trkpt>
      <trkpt lat="43.64782" lon="3.33072">
        <ele>139</ele>
        <time>2011-04-24T11:39:24Z</time>
      </trkpt>
      <trkpt lat="43.64723" lon="3.32995">
        <ele>140</ele>
        <time>2011-04-24T11:39:54Z</time>
      </trkpt>
      <trkpt lat="43.64695" lon="3.32985">
        <ele>140</ele>
        <time>2011-04-24T11:40:03Z</time>
      </trkpt>
      <trkpt lat="43.64647" lon="3.33008">
        <ele>141</ele>
        <time>2011-04-24T11:40:20Z</time>
      </trkpt>
      <trkpt lat="43.64623" lon="3.33012">
        <ele>141</ele>
        <time>2011-04-24T11:40:31Z</time>
      </trkpt>
      <trkpt lat="43.64602" lon="3.32997">
        <ele>141</ele>
        <time>2011-04-24T11:40:39Z</time>
      </trkpt>
      <trkpt lat="43.6457" lon="3.3298">
        <ele>143</ele>
        <time>2011-04-24T11:40:54Z</time>
      </trkpt>
      <trkpt lat="43.64482" lon="3.32843">
        <ele>141</ele>
        <time>2011-04-24T11:42:29Z</time>
      </trkpt>
      <trkpt lat="43.64465" lon="3.32828">
        <ele>140</ele>
        <time>2011-04-24T11:42:36Z</time>
      </trkpt>
      <trkpt lat="43.64452" lon="3.32792">
        <ele>140</ele>
        <time>2011-04-24T11:42:49Z</time>
      </trkpt>
      <trkpt lat="43.64415" lon="3.3279">
        <ele>143</ele>
        <time>2011-04-24T11:43:06Z</time>
      </trkpt>
      <trkpt lat="43.64382" lon="3.32772">
        <ele>143</ele>
        <time>2011-04-24T11:43:19Z</time>
      </trkpt>
      <trkpt lat="43.6434" lon="3.3276">
        <ele>143</ele>
        <time>2011-04-24T11:43:33Z</time>
      </trkpt>
      <trkpt lat="43.64323" lon="3.32777">
        <ele>145</ele>
        <time>2011-04-24T11:43:42Z</time>
      </trkpt>
      <trkpt lat="43.64302" lon="3.32757">
        <ele>145</ele>
        <time>2011-04-24T11:43:51Z</time>
      </trkpt>
      <trkpt lat="43.64273" lon="3.3274">
        <ele>144</ele>
        <time>2011-04-24T11:43:58Z</time>
      </trkpt>
      <trkpt lat="43.64247" lon="3.32725">
        <ele>145</ele>
        <time>2011-04-24T11:44:09Z</time>
      </trkpt>
      <trkpt lat="43.64225" lon="3.32717">
        <ele>145</ele>
        <time>2011-04-24T11:44:18Z</time>
      </trkpt>
      <trkpt lat="43.64205" lon="3.32698">
        <ele>145</ele>
        <time>2011-04-24T11:44:31Z</time>
      </trkpt>
      <trkpt lat="43.64188" lon="3.3269">
        <ele>146</ele>
        <time>2011-04-24T11:44:45Z</time>
      </trkpt>
      <trkpt lat="43.6416" lon="3.32652">
        <ele>145</ele>
        <time>2011-04-24T11:44:58Z</time>
      </trkpt>
      <trkpt lat="43.64097" lon="3.32535">
        <ele>142</ele>
        <time>2011-04-24T11:45:19Z</time>
      </trkpt>
      <trkpt lat="43.64067" lon="3.32478">
        <ele>144</ele>
        <time>2011-04-24T11:45:31Z</time>
      </trkpt>
      <trkpt lat="43.64002" lon="3.32458">
        <ele>145</ele>
        <time>2011-04-24T11:45:50Z</time>
      </trkpt>
      <trkpt lat="43.63985" lon="3.32448">
        <ele>145</ele>
        <time>2011-04-24T11:46:25Z</time>
      </trkpt>
      <trkpt lat="43.63903" lon="3.32473">
        <ele>147</ele>
        <time>2011-04-24T11:48:08Z</time>
      </trkpt>
      <trkpt lat="43.63823" lon="3.32477">
        <ele>152</ele>
        <time>2011-04-24T11:48:36Z</time>
      </trkpt>
      <trkpt lat="43.63772" lon="3.32467">
        <ele>153</ele>
        <time>2011-04-24T11:48:57Z</time>
      </trkpt>
      <trkpt lat="43.6373" lon="3.32445">
        <ele>156</ele>
        <time>2011-04-24T11:49:13Z</time>
      </trkpt>
      <trkpt lat="43.63632" lon="3.32317">
        <ele>156</ele>
        <time>2011-04-24T11:49:53Z</time>
      </trkpt>
      <trkpt lat="43.63592" lon="3.32285">
        <ele>156</ele>
        <time>2011-04-24T11:50:05Z</time>
      </trkpt>
      <trkpt lat="43.6337" lon="3.3226">
        <ele>161</ele>
        <time>2011-04-24T11:51:01Z</time>
      </trkpt>
      <trkpt lat="43.6319" lon="3.32062">
        <ele>162</ele>
        <time>2011-04-24T11:51:59Z</time>
      </trkpt>
      <trkpt lat="43.6323" lon="3.32108">
        <ele>164</ele>
        <time>2011-04-24T11:54:08Z</time>
      </trkpt>
      <trkpt lat="43.63352" lon="3.32252">
        <ele>161</ele>
        <time>2011-04-24T11:54:48Z</time>
      </trkpt>
      <trkpt lat="43.63585" lon="3.32287">
        <ele>156</ele>
        <time>2011-04-24T11:55:39Z</time>
      </trkpt>
      <trkpt lat="43.63642" lon="3.32335">
        <ele>158</ele>
        <time>2011-04-24T11:55:52Z</time>
      </trkpt>
      <trkpt lat="43.6372" lon="3.32443">
        <ele>156</ele>
        <time>2011-04-24T11:56:13Z</time>
      </trkpt>
      <trkpt lat="43.6378" lon="3.32477">
        <ele>153</ele>
        <time>2011-04-24T11:56:24Z</time>
      </trkpt>
      <trkpt lat="43.63847" lon="3.32483">
        <ele>150</ele>
        <time>2011-04-24T11:56:40Z</time>
      </trkpt>
      <trkpt lat="43.6392" lon="3.32475">
        <ele>146</ele>
        <time>2011-04-24T11:56:47Z</time>
      </trkpt>
      <trkpt lat="43.64052" lon="3.32428">
        <ele>144</ele>
        <time>2011-04-24T11:57:06Z</time>
      </trkpt>
      <trkpt lat="43.6411" lon="3.32442">
        <ele>143</ele>
        <time>2011-04-24T11:57:22Z</time>
      </trkpt>
      <trkpt lat="43.64142" lon="3.32448">
        <ele>143</ele>
        <time>2011-04-24T11:57:32Z</time>
      </trkpt>
      <trkpt lat="43.64318" lon="3.32538">
        <ele>140</ele>
        <time>2011-04-24T11:58:15Z</time>
      </trkpt>
      <trkpt lat="43.64385" lon="3.32537">
        <ele>140</ele>
        <time>2011-04-24T11:58:31Z</time>
      </trkpt>
      <trkpt lat="43.64482" lon="3.32508">
        <ele>139</ele>
        <time>2011-04-24T11:59:12Z</time>
      </trkpt>
      <trkpt lat="43.64535" lon="3.32478">
        <ele>139</ele>
        <time>2011-04-24T11:59:29Z</time>
      </trkpt>
      <trkpt lat="43.64648" lon="3.32505">
        <ele>141</ele>
        <time>2011-04-24T11:59:55Z</time>
      </trkpt>
      <trkpt lat="43.64718" lon="3.325">
        <ele>140</ele>
        <time>2011-04-24T12:00:10Z</time>
      </trkpt>
      <trkpt lat="43.64752" lon="3.32467">
        <ele>141</ele>
        <time>2011-04-24T12:00:21Z</time>
      </trkpt>
      <trkpt lat="43.6477" lon="3.32407">
        <ele>145</ele>
        <time>2011-04-24T12:00:34Z</time>
      </trkpt>
      <trkpt lat="43.6476" lon="3.32365">
        <ele>146</ele>
        <time>2011-04-24T12:00:47Z</time>
      </trkpt>
      <trkpt lat="43.64738" lon="3.32238">
        <ele>151</ele>
        <time>2011-04-24T12:01:18Z</time>
      </trkpt>
      <trkpt lat="43.64713" lon="3.32147">
        <ele>154</ele>
        <time>2011-04-24T12:01:39Z</time>
      </trkpt>
      <trkpt lat="43.64702" lon="3.32088">
        <ele>154</ele>
        <time>2011-04-24T12:01:52Z</time>
      </trkpt>
      <trkpt lat="43.6467" lon="3.32047">
        <ele>155</ele>
        <time>2011-04-24T12:02:05Z</time>
      </trkpt>
      <trkpt lat="43.6466" lon="3.3201">
        <ele>153</ele>
        <time>2011-04-24T12:02:14Z</time>
      </trkpt>
      <trkpt lat="43.64677" lon="3.3191">
        <ele>156</ele>
        <time>2011-04-24T12:02:37Z</time>
      </trkpt>
      <trkpt lat="43.64687" lon="3.31847">
        <ele>156</ele>
        <time>2011-04-24T12:02:50Z</time>
      </trkpt>
      <trkpt lat="43.64667" lon="3.31668">
        <ele>160</ele>
        <time>2011-04-24T12:03:26Z</time>
      </trkpt>
      <trkpt lat="43.64595" lon="3.3146">
        <ele>162</ele>
        <time>2011-04-24T12:04:08Z</time>
      </trkpt>
      <trkpt lat="43.64593" lon="3.31378">
        <ele>163</ele>
        <time>2011-04-24T12:04:23Z</time>
      </trkpt>
      <trkpt lat="43.64622" lon="3.31268">
        <ele>164</ele>
        <time>2011-04-24T12:04:41Z</time>
      </trkpt>
      <trkpt lat="43.64752" lon="3.31112">
        <ele>168</ele>
        <time>2011-04-24T12:05:26Z</time>
      </trkpt>
      <trkpt lat="43.64743" lon="3.3107">
        <ele>166</ele>
        <time>2011-04-24T12:05:40Z</time>
      </trkpt>
      <trkpt lat="43.64755" lon="3.31022">
        <ele>168</ele>
        <time>2011-04-24T12:05:49Z</time>
      </trkpt>
      <trkpt lat="43.64758" lon="3.30967">
        <ele>168</ele>
        <time>2011-04-24T12:06:01Z</time>
      </trkpt>
      <trkpt lat="43.64847" lon="3.30852">
        <ele>170</ele>
        <time>2011-04-24T12:06:34Z</time>
      </trkpt>
      <trkpt lat="43.64897" lon="3.30857">
        <ele>171</ele>
        <time>2011-04-24T12:06:51Z</time>
      </trkpt>
      <trkpt lat="43.64943" lon="3.30887">
        <ele>175</ele>
        <time>2011-04-24T12:07:09Z</time>
      </trkpt>
      <trkpt lat="43.6497" lon="3.30895">
        <ele>177</ele>
        <time>2011-04-24T12:07:20Z</time>
      </trkpt>
      <trkpt lat="43.6502" lon="3.30773">
        <ele>180</ele>
        <time>2011-04-24T12:07:52Z</time>
      </trkpt>
      <trkpt lat="43.65145" lon="3.30587">
        <ele>184</ele>
        <time>2011-04-24T12:08:37Z</time>
      </trkpt>
      <trkpt lat="43.65218" lon="3.30553">
        <ele>183</ele>
        <time>2011-04-24T12:08:59Z</time>
      </trkpt>
      <trkpt lat="43.65332" lon="3.30418">
        <ele>187</ele>
        <time>2011-04-24T12:09:34Z</time>
      </trkpt>
      <trkpt lat="43.65417" lon="3.30323">
        <ele>194</ele>
        <time>2011-04-24T12:10:06Z</time>
      </trkpt>
      <trkpt lat="43.65457" lon="3.30305">
        <ele>196</ele>
        <time>2011-04-24T12:10:23Z</time>
      </trkpt>
      <trkpt lat="43.65475" lon="3.30305">
        <ele>197</ele>
        <time>2011-04-24T12:10:36Z</time>
      </trkpt>
      <trkpt lat="43.65485" lon="3.30332">
        <ele>196</ele>
        <time>2011-04-24T12:11:02Z</time>
      </trkpt>
      <trkpt lat="43.6548" lon="3.30298">
        <ele>197</ele>
        <time>2011-04-24T12:15:51Z</time>
      </trkpt>
      <trkpt lat="43.65488" lon="3.30255">
        <ele>200</ele>
        <time>2011-04-24T12:16:14Z</time>
      </trkpt>
      <trkpt lat="43.6551" lon="3.30238">
        <ele>207</ele>
        <time>2011-04-24T12:16:26Z</time>
      </trkpt>
      <trkpt lat="43.65565" lon="3.30272">
        <ele>206</ele>
        <time>2011-04-24T12:16:57Z</time>
      </trkpt>
      <trkpt lat="43.65607" lon="3.3029">
        <ele>215</ele>
        <time>2011-04-24T12:17:15Z</time>
      </trkpt>
      <trkpt lat="43.6563" lon="3.30328">
        <ele>216</ele>
        <time>2011-04-24T12:17:29Z</time>
      </trkpt>
      <trkpt lat="43.65657" lon="3.30383">
        <ele>208</ele>
        <time>2011-04-24T12:17:46Z</time>
      </trkpt>
      <trkpt lat="43.65687" lon="3.30412">
        <ele>217</ele>
        <time>2011-04-24T12:18:00Z</time>
      </trkpt>
      <trkpt lat="43.65718" lon="3.30423">
        <ele>214</ele>
        <time>2011-04-24T12:18:12Z</time>
      </trkpt>
      <trkpt lat="43.65773" lon="3.30417">
        <ele>224</ele>
        <time>2011-04-24T12:19:24Z</time>
      </trkpt>
      <trkpt lat="43.65873" lon="3.30443">
        <ele>232</ele>
        <time>2011-04-24T12:20:14Z</time>
      </trkpt>
      <trkpt lat="43.65892" lon="3.30435">
        <ele>234</ele>
        <time>2011-04-24T12:20:27Z</time>
      </trkpt>
      <trkpt lat="43.65933" lon="3.3042">
        <ele>239</ele>
        <time>2011-04-24T12:20:55Z</time>
      </trkpt>
      <trkpt lat="43.65977" lon="3.30392">
        <ele>256</ele>
        <time>2011-04-24T12:21:29Z</time>
      </trkpt>
      <trkpt lat="43.66008" lon="3.30385">
        <ele>253</ele>
        <time>2011-04-24T12:21:50Z</time>
      </trkpt>
      <trkpt lat="43.66048" lon="3.30352">
        <ele>255</ele>
        <time>2011-04-24T12:22:13Z</time>
      </trkpt>
      <trkpt lat="43.66068" lon="3.30325">
        <ele>270</ele>
        <time>2011-04-24T12:22:27Z</time>
      </trkpt>
      <trkpt lat="43.6609" lon="3.30323">
        <ele>261</ele>
        <time>2011-04-24T12:24:26Z</time>
      </trkpt>
      <trkpt lat="43.6612" lon="3.30303">
        <ele>262</ele>
        <time>2011-04-24T12:24:43Z</time>
      </trkpt>
      <trkpt lat="43.66133" lon="3.30277">
        <ele>265</ele>
        <time>2011-04-24T12:24:56Z</time>
      </trkpt>
      <trkpt lat="43.66162" lon="3.30263">
        <ele>266</ele>
        <time>2011-04-24T12:25:11Z</time>
      </trkpt>
      <trkpt lat="43.6618" lon="3.3022">
        <ele>275</ele>
        <time>2011-04-24T12:25:30Z</time>
      </trkpt>
      <trkpt lat="43.66178" lon="3.30185">
        <ele>281</ele>
        <time>2011-04-24T12:25:44Z</time>
      </trkpt>
      <trkpt lat="43.66193" lon="3.30158">
        <ele>296</ele>
        <time>2011-04-24T12:25:57Z</time>
      </trkpt>
      <trkpt lat="43.66223" lon="3.30183">
        <ele>280</ele>
        <time>2011-04-24T12:26:13Z</time>
      </trkpt>
      <trkpt lat="43.66243" lon="3.30203">
        <ele>277</ele>
        <time>2011-04-24T12:26:24Z</time>
      </trkpt>
      <trkpt lat="43.66272" lon="3.30193">
        <ele>277</ele>
        <time>2011-04-24T12:26:38Z</time>
      </trkpt>
      <trkpt lat="43.66363" lon="3.30167">
        <ele>276</ele>
        <time>2011-04-24T12:27:27Z</time>
      </trkpt>
      <trkpt lat="43.664" lon="3.30138">
        <ele>292</ele>
        <time>2011-04-24T12:27:53Z</time>
      </trkpt>
      <trkpt lat="43.66415" lon="3.30118">
        <ele>297</ele>
        <time>2011-04-24T12:28:04Z</time>
      </trkpt>
      <trkpt lat="43.66448" lon="3.30063">
        <ele>304</ele>
        <time>2011-04-24T12:28:31Z</time>
      </trkpt>
      <trkpt lat="43.66478" lon="3.30045">
        <ele>303</ele>
        <time>2011-04-24T12:28:47Z</time>
      </trkpt>
      <trkpt lat="43.66487" lon="3.30017">
        <ele>306</ele>
        <time>2011-04-24T12:28:59Z</time>
      </trkpt>
      <trkpt lat="43.665" lon="3.29992">
        <ele>313</ele>
        <time>2011-04-24T12:29:11Z</time>
      </trkpt>
      <trkpt lat="43.6654" lon="3.29963">
        <ele>307</ele>
        <time>2011-04-24T12:29:31Z</time>
      </trkpt>
      <trkpt lat="43.66573" lon="3.29908">
        <ele>318</ele>
        <time>2011-04-24T12:29:55Z</time>
      </trkpt>
      <trkpt lat="43.66592" lon="3.29863">
        <ele>309</ele>
        <time>2011-04-24T12:30:12Z</time>
      </trkpt>
      <trkpt lat="43.666" lon="3.29823">
        <ele>318</ele>
        <time>2011-04-24T12:30:26Z</time>
      </trkpt>
      <trkpt lat="43.66593" lon="3.29787">
        <ele>319</ele>
        <time>2011-04-24T12:30:42Z</time>
      </trkpt>
      <trkpt lat="43.66608" lon="3.29748">
        <ele>327</ele>
        <time>2011-04-24T12:30:58Z</time>
      </trkpt>
      <trkpt lat="43.66622" lon="3.29648">
        <ele>332</ele>
        <time>2011-04-24T12:31:24Z</time>
      </trkpt>
      <trkpt lat="43.66635" lon="3.29595">
        <ele>330</ele>
        <time>2011-04-24T12:31:36Z</time>
      </trkpt>
      <trkpt lat="43.66668" lon="3.29512">
        <ele>324</ele>
        <time>2011-04-24T12:31:51Z</time>
      </trkpt>
      <trkpt lat="43.66663" lon="3.29432">
        <ele>339</ele>
        <time>2011-04-24T12:32:02Z</time>
      </trkpt>
      <trkpt lat="43.66678" lon="3.29403">
        <ele>336</ele>
        <time>2011-04-24T12:32:09Z</time>
      </trkpt>
      <trkpt lat="43.6671" lon="3.29448">
        <ele>330</ele>
        <time>2011-04-24T12:32:34Z</time>
      </trkpt>
      <trkpt lat="43.66727" lon="3.29477">
        <ele>329</ele>
        <time>2011-04-24T12:32:50Z</time>
      </trkpt>
      <trkpt lat="43.6674" lon="3.29493">
        <ele>329</ele>
        <time>2011-04-24T12:33:01Z</time>
      </trkpt>
      <trkpt lat="43.66737" lon="3.29555">
        <ele>324</ele>
        <time>2011-04-24T12:33:20Z</time>
      </trkpt>
      <trkpt lat="43.6674" lon="3.29643">
        <ele>319</ele>
        <time>2011-04-24T12:33:39Z</time>
      </trkpt>
      <trkpt lat="43.66783" lon="3.29737">
        <ele>328</ele>
        <time>2011-04-24T12:34:02Z</time>
      </trkpt>
      <trkpt lat="43.66825" lon="3.29792">
        <ele>323</ele>
        <time>2011-04-24T12:34:22Z</time>
      </trkpt>
      <trkpt lat="43.66868" lon="3.29815">
        <ele>335</ele>
        <time>2011-04-24T12:34:40Z</time>
      </trkpt>
      <trkpt lat="43.669" lon="3.29835">
        <ele>327</ele>
        <time>2011-04-24T12:34:52Z</time>
      </trkpt>
      <trkpt lat="43.66937" lon="3.29837">
        <ele>332</ele>
        <time>2011-04-24T12:35:12Z</time>
      </trkpt>
      <trkpt lat="43.66962" lon="3.2983">
        <ele>345</ele>
        <time>2011-04-24T12:35:26Z</time>
      </trkpt>
      <trkpt lat="43.66982" lon="3.29817">
        <ele>346</ele>
        <time>2011-04-24T12:35:42Z</time>
      </trkpt>
      <trkpt lat="43.67035" lon="3.29832">
        <ele>351</ele>
        <time>2011-04-24T12:36:04Z</time>
      </trkpt>
      <trkpt lat="43.67068" lon="3.29852">
        <ele>346</ele>
        <time>2011-04-24T12:36:22Z</time>
      </trkpt>
      <trkpt lat="43.67083" lon="3.29887">
        <ele>344</ele>
        <time>2011-04-24T12:36:38Z</time>
      </trkpt>
      <trkpt lat="43.67087" lon="3.29935">
        <ele>351</ele>
        <time>2011-04-24T12:36:56Z</time>
      </trkpt>
      <trkpt lat="43.67078" lon="3.29963">
        <ele>343</ele>
        <time>2011-04-24T12:37:09Z</time>
      </trkpt>
      <trkpt lat="43.67062" lon="3.30002">
        <ele>347</ele>
        <time>2011-04-24T12:37:29Z</time>
      </trkpt>
      <trkpt lat="43.67053" lon="3.30052">
        <ele>348</ele>
        <time>2011-04-24T12:37:45Z</time>
      </trkpt>
      <trkpt lat="43.67058" lon="3.30085">
        <ele>355</ele>
        <time>2011-04-24T12:37:58Z</time>
      </trkpt>
      <trkpt lat="43.67055" lon="3.30107">
        <ele>355</ele>
        <time>2011-04-24T12:38:09Z</time>
      </trkpt>
      <trkpt lat="43.6708" lon="3.30093">
        <ele>356</ele>
        <time>2011-04-24T12:38:24Z</time>
      </trkpt>
      <trkpt lat="43.67102" lon="3.30078">
        <ele>358</ele>
        <time>2011-04-24T12:38:37Z</time>
      </trkpt>
      <trkpt lat="43.67168" lon="3.2998">
        <ele>365</ele>
        <time>2011-04-24T12:39:17Z</time>
      </trkpt>
      <trkpt lat="43.67183" lon="3.29948">
        <ele>365</ele>
        <time>2011-04-24T12:39:28Z</time>
      </trkpt>
      <trkpt lat="43.67213" lon="3.29933">
        <ele>365</ele>
        <time>2011-04-24T12:39:41Z</time>
      </trkpt>
      <trkpt lat="43.67232" lon="3.29878">
        <ele>366</ele>
        <time>2011-04-24T12:39:55Z</time>
      </trkpt>
      <trkpt lat="43.67233" lon="3.29838">
        <ele>366</ele>
        <time>2011-04-24T12:40:05Z</time>
      </trkpt>
      <trkpt lat="43.67225" lon="3.29808">
        <ele>366</ele>
        <time>2011-04-24T12:40:13Z</time>
      </trkpt>
      <trkpt lat="43.67237" lon="3.29747">
        <ele>366</ele>
        <time>2011-04-24T12:40:25Z</time>
      </trkpt>
      <trkpt lat="43.67195" lon="3.2971">
        <ele>364</ele>
        <time>2011-04-24T12:40:42Z</time>
      </trkpt>
      <trkpt lat="43.67195" lon="3.29673">
        <ele>363</ele>
        <time>2011-04-24T12:40:49Z</time>
      </trkpt>
      <trkpt lat="43.67175" lon="3.29605">
        <ele>360</ele>
        <time>2011-04-24T12:41:03Z</time>
      </trkpt>
      <trkpt lat="43.6717" lon="3.29567">
        <ele>359</ele>
        <time>2011-04-24T12:41:13Z</time>
      </trkpt>
      <trkpt lat="43.67138" lon="3.29552">
        <ele>368</ele>
        <time>2011-04-24T12:41:28Z</time>
      </trkpt>
      <trkpt lat="43.67102" lon="3.2956">
        <ele>371</ele>
        <time>2011-04-24T12:41:52Z</time>
      </trkpt>
      <trkpt lat="43.6703" lon="3.29585">
        <ele>374</ele>
        <time>2011-04-24T12:42:30Z</time>
      </trkpt>
      <trkpt lat="43.67003" lon="3.2958">
        <ele>377</ele>
        <time>2011-04-24T12:42:41Z</time>
      </trkpt>
      <trkpt lat="43.66977" lon="3.29547">
        <ele>380</ele>
        <time>2011-04-24T12:42:55Z</time>
      </trkpt>
      <trkpt lat="43.66957" lon="3.29503">
        <ele>381</ele>
        <time>2011-04-24T12:43:09Z</time>
      </trkpt>
      <trkpt lat="43.6693" lon="3.29463">
        <ele>384</ele>
        <time>2011-04-24T12:43:25Z</time>
      </trkpt>
      <trkpt lat="43.66927" lon="3.29422">
        <ele>384</ele>
        <time>2011-04-24T12:43:35Z</time>
      </trkpt>
      <trkpt lat="43.66933" lon="3.29345">
        <ele>383</ele>
        <time>2011-04-24T12:43:51Z</time>
      </trkpt>
      <trkpt lat="43.66923" lon="3.29285">
        <ele>382</ele>
        <time>2011-04-24T12:44:04Z</time>
      </trkpt>
      <trkpt lat="43.66895" lon="3.292">
        <ele>375</ele>
        <time>2011-04-24T12:44:18Z</time>
      </trkpt>
      <trkpt lat="43.66867" lon="3.29118">
        <ele>372</ele>
        <time>2011-04-24T12:44:28Z</time>
      </trkpt>
      <trkpt lat="43.6685" lon="3.29088">
        <ele>368</ele>
        <time>2011-04-24T12:44:32Z</time>
      </trkpt>
      <trkpt lat="43.66828" lon="3.28997">
        <ele>364</ele>
        <time>2011-04-24T12:44:46Z</time>
      </trkpt>
      <trkpt lat="43.6684" lon="3.28922">
        <ele>366</ele>
        <time>2011-04-24T12:44:56Z</time>
      </trkpt>
      <trkpt lat="43.6684" lon="3.2886">
        <ele>368</ele>
        <time>2011-04-24T12:45:04Z</time>
      </trkpt>
      <trkpt lat="43.66852" lon="3.28843">
        <ele>367</ele>
        <time>2011-04-24T12:45:19Z</time>
      </trkpt>
      <trkpt lat="43.6688" lon="3.28823">
        <ele>372</ele>
        <time>2011-04-24T12:48:06Z</time>
      </trkpt>
      <trkpt lat="43.66888" lon="3.28788">
        <ele>372</ele>
        <time>2011-04-24T12:48:24Z</time>
      </trkpt>
      <trkpt lat="43.669" lon="3.28755">
        <ele>373</ele>
        <time>2011-04-24T12:48:40Z</time>
      </trkpt>
      <trkpt lat="43.66908" lon="3.28722">
        <ele>371</ele>
        <time>2011-04-24T12:48:58Z</time>
      </trkpt>
      <trkpt lat="43.66945" lon="3.28692">
        <ele>379</ele>
        <time>2011-04-24T12:49:26Z</time>
      </trkpt>
      <trkpt lat="43.6698" lon="3.28655">
        <ele>376</ele>
        <time>2011-04-24T12:49:52Z</time>
      </trkpt>
      <trkpt lat="43.67028" lon="3.2863">
        <ele>382</ele>
        <time>2011-04-24T12:50:14Z</time>
      </trkpt>
      <trkpt lat="43.67117" lon="3.28507">
        <ele>386</ele>
        <time>2011-04-24T12:50:51Z</time>
      </trkpt>
      <trkpt lat="43.67143" lon="3.2845">
        <ele>382</ele>
        <time>2011-04-24T12:51:04Z</time>
      </trkpt>
      <trkpt lat="43.67157" lon="3.28338">
        <ele>377</ele>
        <time>2011-04-24T12:51:23Z</time>
      </trkpt>
      <trkpt lat="43.6719" lon="3.28277">
        <ele>374</ele>
        <time>2011-04-24T12:51:36Z</time>
      </trkpt>
      <trkpt lat="43.67222" lon="3.28275">
        <ele>374</ele>
        <time>2011-04-24T12:51:47Z</time>
      </trkpt>
      <trkpt lat="43.6725" lon="3.28232">
        <ele>372</ele>
        <time>2011-04-24T12:51:52Z</time>
      </trkpt>
      <trkpt lat="43.6725" lon="3.2816">
        <ele>374</ele>
        <time>2011-04-24T12:52:14Z</time>
      </trkpt>
      <trkpt lat="43.67227" lon="3.28082">
        <ele>371</ele>
        <time>2011-04-24T12:52:28Z</time>
      </trkpt>
      <trkpt lat="43.67178" lon="3.28047">
        <ele>371</ele>
        <time>2011-04-24T12:52:37Z</time>
      </trkpt>
      <trkpt lat="43.6718" lon="3.2799">
        <ele>370</ele>
        <time>2011-04-24T12:52:48Z</time>
      </trkpt>
      <trkpt lat="43.67192" lon="3.27947">
        <ele>370</ele>
        <time>2011-04-24T12:52:58Z</time>
      </trkpt>
      <trkpt lat="43.6724" lon="3.27917">
        <ele>369</ele>
        <time>2011-04-24T12:53:11Z</time>
      </trkpt>
      <trkpt lat="43.67297" lon="3.27875">
        <ele>371</ele>
        <time>2011-04-24T12:53:36Z</time>
      </trkpt>
      <trkpt lat="43.67317" lon="3.27848">
        <ele>372</ele>
        <time>2011-04-24T12:53:49Z</time>
      </trkpt>
      <trkpt lat="43.67347" lon="3.27785">
        <ele>373</ele>
        <time>2011-04-24T12:54:08Z</time>
      </trkpt>
      <trkpt lat="43.67367" lon="3.27722">
        <ele>380</ele>
        <time>2011-04-24T12:54:21Z</time>
      </trkpt>
      <trkpt lat="43.67393" lon="3.27702">
        <ele>380</ele>
        <time>2011-04-24T12:54:28Z</time>
      </trkpt>
      <trkpt lat="43.67422" lon="3.27727">
        <ele>380</ele>
        <time>2011-04-24T12:54:37Z</time>
      </trkpt>
      <trkpt lat="43.67448" lon="3.27742">
        <ele>381</ele>
        <time>2011-04-24T12:54:48Z</time>
      </trkpt>
      <trkpt lat="43.6745" lon="3.27685">
        <ele>384</ele>
        <time>2011-04-24T12:55:09Z</time>
      </trkpt>
      <trkpt lat="43.67432" lon="3.2765">
        <ele>390</ele>
        <time>2011-04-24T12:55:18Z</time>
      </trkpt>
      <trkpt lat="43.67372" lon="3.27607">
        <ele>390</ele>
        <time>2011-04-24T12:55:46Z</time>
      </trkpt>
      <trkpt lat="43.67322" lon="3.27532">
        <ele>394</ele>
        <time>2011-04-24T12:56:13Z</time>
      </trkpt>
      <trkpt lat="43.67307" lon="3.27485">
        <ele>399</ele>
        <time>2011-04-24T12:56:25Z</time>
      </trkpt>
      <trkpt lat="43.67285" lon="3.27418">
        <ele>401</ele>
        <time>2011-04-24T12:56:42Z</time>
      </trkpt>
      <trkpt lat="43.67307" lon="3.27375">
        <ele>404</ele>
        <time>2011-04-24T12:56:55Z</time>
      </trkpt>
      <trkpt lat="43.67355" lon="3.27205">
        <ele>406</ele>
        <time>2011-04-24T12:57:32Z</time>
      </trkpt>
      <trkpt lat="43.67377" lon="3.2717">
        <ele>405</ele>
        <time>2011-04-24T12:57:39Z</time>
      </trkpt>
      <trkpt lat="43.67473" lon="3.27155">
        <ele>403</ele>
        <time>2011-04-24T12:58:04Z</time>
      </trkpt>
      <trkpt lat="43.67532" lon="3.27168">
        <ele>414</ele>
        <time>2011-04-24T12:58:18Z</time>
      </trkpt>
      <trkpt lat="43.67582" lon="3.27123">
        <ele>406</ele>
        <time>2011-04-24T12:58:32Z</time>
      </trkpt>
      <trkpt lat="43.67615" lon="3.27112">
        <ele>410</ele>
        <time>2011-04-24T12:58:42Z</time>
      </trkpt>
      <trkpt lat="43.67647" lon="3.27142">
        <ele>412</ele>
        <time>2011-04-24T12:58:54Z</time>
      </trkpt>
      <trkpt lat="43.67692" lon="3.27133">
        <ele>416</ele>
        <time>2011-04-24T12:59:06Z</time>
      </trkpt>
      <trkpt lat="43.67748" lon="3.2714">
        <ele>418</ele>
        <time>2011-04-24T12:59:21Z</time>
      </trkpt>
      <trkpt lat="43.67723" lon="3.2711">
        <ele>417</ele>
        <time>2011-04-24T12:59:32Z</time>
      </trkpt>
      <trkpt lat="43.6767" lon="3.27083">
        <ele>413</ele>
        <time>2011-04-24T12:59:48Z</time>
      </trkpt>
      <trkpt lat="43.67658" lon="3.2706">
        <ele>411</ele>
        <time>2011-04-24T13:00:38Z</time>
      </trkpt>
      <trkpt lat="43.67652" lon="3.27045">
        <ele>411</ele>
        <time>2011-04-24T13:23:45Z</time>
      </trkpt>
      <trkpt lat="43.67668" lon="3.27065">
        <ele>416</ele>
        <time>2011-04-24T13:35:54Z</time>
      </trkpt>
      <trkpt lat="43.67647" lon="3.2705">
        <ele>411</ele>
        <time>2011-04-24T13:36:08Z</time>
      </trkpt>
      <trkpt lat="43.67627" lon="3.27008">
        <ele>410</ele>
        <time>2011-04-24T13:36:20Z</time>
      </trkpt>
      <trkpt lat="43.6762" lon="3.26972">
        <ele>414</ele>
        <time>2011-04-24T13:36:28Z</time>
      </trkpt>
      <trkpt lat="43.67627" lon="3.26932">
        <ele>417</ele>
        <time>2011-04-24T13:36:40Z</time>
      </trkpt>
      <trkpt lat="43.6763" lon="3.26902">
        <ele>424</ele>
        <time>2011-04-24T13:36:47Z</time>
      </trkpt>
      <trkpt lat="43.67585" lon="3.26903">
        <ele>417</ele>
        <time>2011-04-24T13:36:59Z</time>
      </trkpt>
      <trkpt lat="43.67423" lon="3.26885">
        <ele>419</ele>
        <time>2011-04-24T13:37:39Z</time>
      </trkpt>
      <trkpt lat="43.67355" lon="3.26853">
        <ele>415</ele>
        <time>2011-04-24T13:37:54Z</time>
      </trkpt>
      <trkpt lat="43.67328" lon="3.26812">
        <ele>411</ele>
        <time>2011-04-24T13:38:03Z</time>
      </trkpt>
      <trkpt lat="43.6732" lon="3.26735">
        <ele>417</ele>
        <time>2011-04-24T13:38:21Z</time>
      </trkpt>
      <trkpt lat="43.6731" lon="3.26685">
        <ele>416</ele>
        <time>2011-04-24T13:38:29Z</time>
      </trkpt>
      <trkpt lat="43.6731" lon="3.26573">
        <ele>421</ele>
        <time>2011-04-24T13:38:51Z</time>
      </trkpt>
      <trkpt lat="43.67332" lon="3.26413">
        <ele>427</ele>
        <time>2011-04-24T13:39:23Z</time>
      </trkpt>
      <trkpt lat="43.67355" lon="3.26358">
        <ele>434</ele>
        <time>2011-04-24T13:39:35Z</time>
      </trkpt>
      <trkpt lat="43.6734" lon="3.26313">
        <ele>430</ele>
        <time>2011-04-24T13:39:48Z</time>
      </trkpt>
      <trkpt lat="43.67347" lon="3.26265">
        <ele>431</ele>
        <time>2011-04-24T13:39:56Z</time>
      </trkpt>
      <trkpt lat="43.6737" lon="3.26235">
        <ele>436</ele>
        <time>2011-04-24T13:40:06Z</time>
      </trkpt>
      <trkpt lat="43.67403" lon="3.2622">
        <ele>439</ele>
        <time>2011-04-24T13:40:17Z</time>
      </trkpt>
      <trkpt lat="43.67378" lon="3.26193">
        <ele>438</ele>
        <time>2011-04-24T13:40:34Z</time>
      </trkpt>
      <trkpt lat="43.67347" lon="3.2619">
        <ele>436</ele>
        <time>2011-04-24T13:40:45Z</time>
      </trkpt>
      <trkpt lat="43.673" lon="3.2615">
        <ele>435</ele>
        <time>2011-04-24T13:41:00Z</time>
      </trkpt>
      <trkpt lat="43.67292" lon="3.26095">
        <ele>437</ele>
        <time>2011-04-24T13:41:08Z</time>
      </trkpt>
      <trkpt lat="43.67263" lon="3.26082">
        <ele>440</ele>
        <time>2011-04-24T13:41:17Z</time>
      </trkpt>
      <trkpt lat="43.67235" lon="3.2614">
        <ele>434</ele>
        <time>2011-04-24T13:41:26Z</time>
      </trkpt>
      <trkpt lat="43.67187" lon="3.26143">
        <ele>438</ele>
        <time>2011-04-24T13:41:39Z</time>
      </trkpt>
      <trkpt lat="43.67188" lon="3.26193">
        <ele>434</ele>
        <time>2011-04-24T13:41:51Z</time>
      </trkpt>
      <trkpt lat="43.67205" lon="3.2624">
        <ele>432</ele>
        <time>2011-04-24T13:42:01Z</time>
      </trkpt>
      <trkpt lat="43.6718" lon="3.26337">
        <ele>427</ele>
        <time>2011-04-24T13:42:14Z</time>
      </trkpt>
      <trkpt lat="43.67205" lon="3.264">
        <ele>423</ele>
        <time>2011-04-24T13:42:21Z</time>
      </trkpt>
      <trkpt lat="43.67197" lon="3.26483">
        <ele>417</ele>
        <time>2011-04-24T13:42:28Z</time>
      </trkpt>
      <trkpt lat="43.67102" lon="3.26638">
        <ele>404</ele>
        <time>2011-04-24T13:42:47Z</time>
      </trkpt>
      <trkpt lat="43.66975" lon="3.26775">
        <ele>400</ele>
        <time>2011-04-24T13:43:09Z</time>
      </trkpt>
      <trkpt lat="43.66938" lon="3.26872">
        <ele>395</ele>
        <time>2011-04-24T13:43:21Z</time>
      </trkpt>
      <trkpt lat="43.66893" lon="3.26958">
        <ele>400</ele>
        <time>2011-04-24T13:43:34Z</time>
      </trkpt>
      <trkpt lat="43.66885" lon="3.27033">
        <ele>392</ele>
        <time>2011-04-24T13:43:44Z</time>
      </trkpt>
      <trkpt lat="43.6685" lon="3.27132">
        <ele>385</ele>
        <time>2011-04-24T13:43:59Z</time>
      </trkpt>
      <trkpt lat="43.66818" lon="3.27203">
        <ele>386</ele>
        <time>2011-04-24T13:44:08Z</time>
      </trkpt>
      <trkpt lat="43.66773" lon="3.2722">
        <ele>389</ele>
        <time>2011-04-24T13:44:17Z</time>
      </trkpt>
      <trkpt lat="43.66693" lon="3.27375">
        <ele>386</ele>
        <time>2011-04-24T13:44:38Z</time>
      </trkpt>
      <trkpt lat="43.6668" lon="3.27445">
        <ele>374</ele>
        <time>2011-04-24T13:44:41Z</time>
      </trkpt>
      <trkpt lat="43.66627" lon="3.27637">
        <ele>360</ele>
        <time>2011-04-24T13:45:04Z</time>
      </trkpt>
      <trkpt lat="43.66568" lon="3.27773">
        <ele>351</ele>
        <time>2011-04-24T13:45:22Z</time>
      </trkpt>
      <trkpt lat="43.665" lon="3.2789">
        <ele>356</ele>
        <time>2011-04-24T13:45:46Z</time>
      </trkpt>
      <trkpt lat="43.66477" lon="3.27952">
        <ele>343</ele>
        <time>2011-04-24T13:45:59Z</time>
      </trkpt>
      <trkpt lat="43.66408" lon="3.28033">
        <ele>340</ele>
        <time>2011-04-24T13:46:16Z</time>
      </trkpt>
      <trkpt lat="43.66333" lon="3.28093">
        <ele>336</ele>
        <time>2011-04-24T13:46:30Z</time>
      </trkpt>
      <trkpt lat="43.66263" lon="3.28225">
        <ele>314</ele>
        <time>2011-04-24T13:46:48Z</time>
      </trkpt>
      <trkpt lat="43.66223" lon="3.28313">
        <ele>309</ele>
        <time>2011-04-24T13:46:58Z</time>
      </trkpt>
      <trkpt lat="43.66155" lon="3.28387">
        <ele>305</ele>
        <time>2011-04-24T13:47:08Z</time>
      </trkpt>
      <trkpt lat="43.66102" lon="3.28552">
        <ele>287</ele>
        <time>2011-04-24T13:47:23Z</time>
      </trkpt>
      <trkpt lat="43.66065" lon="3.28683">
        <ele>290</ele>
        <time>2011-04-24T13:47:46Z</time>
      </trkpt>
      <trkpt lat="43.66052" lon="3.2875">
        <ele>284</ele>
        <time>2011-04-24T13:48:02Z</time>
      </trkpt>
      <trkpt lat="43.6605" lon="3.28768">
        <ele>284</ele>
        <time>2011-04-24T13:48:13Z</time>
      </trkpt>
      <trkpt lat="43.66028" lon="3.28812">
        <ele>287</ele>
        <time>2011-04-24T13:51:45Z</time>
      </trkpt>
      <trkpt lat="43.66003" lon="3.28883">
        <ele>278</ele>
        <time>2011-04-24T13:52:06Z</time>
      </trkpt>
      <trkpt lat="43.65983" lon="3.29002">
        <ele>275</ele>
        <time>2011-04-24T13:52:25Z</time>
      </trkpt>
      <trkpt lat="43.65943" lon="3.29112">
        <ele>263</ele>
        <time>2011-04-24T13:52:38Z</time>
      </trkpt>
      <trkpt lat="43.6586" lon="3.2926">
        <ele>246</ele>
        <time>2011-04-24T13:52:54Z</time>
      </trkpt>
      <trkpt lat="43.65835" lon="3.29353">
        <ele>236</ele>
        <time>2011-04-24T13:53:04Z</time>
      </trkpt>
      <trkpt lat="43.65775" lon="3.29407">
        <ele>229</ele>
        <time>2011-04-24T13:53:13Z</time>
      </trkpt>
      <trkpt lat="43.65678" lon="3.29433">
        <ele>221</ele>
        <time>2011-04-24T13:53:40Z</time>
      </trkpt>
      <trkpt lat="43.65573" lon="3.29697">
        <ele>216</ele>
        <time>2011-04-24T13:54:16Z</time>
      </trkpt>
      <trkpt lat="43.6552" lon="3.29817">
        <ele>209</ele>
        <time>2011-04-24T13:54:27Z</time>
      </trkpt>
      <trkpt lat="43.65515" lon="3.29898">
        <ele>204</ele>
        <time>2011-04-24T13:54:37Z</time>
      </trkpt>
      <trkpt lat="43.65522" lon="3.29967">
        <ele>206</ele>
        <time>2011-04-24T13:54:45Z</time>
      </trkpt>
      <trkpt lat="43.6549" lon="3.30045">
        <ele>201</ele>
        <time>2011-04-24T13:55:03Z</time>
      </trkpt>
      <trkpt lat="43.65475" lon="3.30113">
        <ele>201</ele>
        <time>2011-04-24T13:55:15Z</time>
      </trkpt>
      <trkpt lat="43.65433" lon="3.3023">
        <ele>199</ele>
        <time>2011-04-24T13:55:40Z</time>
      </trkpt>
      <trkpt lat="43.6543" lon="3.30287">
        <ele>196</ele>
        <time>2011-04-24T13:55:52Z</time>
      </trkpt>
      <trkpt lat="43.65455" lon="3.30295">
        <ele>197</ele>
        <time>2011-04-24T13:56:01Z</time>
      </trkpt>
      <trkpt lat="43.6547" lon="3.30312">
        <ele>196</ele>
        <time>2011-04-24T13:56:11Z</time>
      </trkpt>
      <trkpt lat="43.65482" lon="3.3032">
        <ele>196</ele>
        <time>2011-04-24T14:20:02Z</time>
      </trkpt>
      <trkpt lat="43.65473" lon="3.3033">
        <ele>196</ele>
        <time>2011-04-24T14:20:13Z</time>
      </trkpt>
      <trkpt lat="43.65467" lon="3.30303">
        <ele>196</ele>
        <time>2011-04-24T14:21:12Z</time>
      </trkpt>
      <trkpt lat="43.65437" lon="3.30305">
        <ele>196</ele>
        <time>2011-04-24T14:21:25Z</time>
      </trkpt>
      <trkpt lat="43.6523" lon="3.30538">
        <ele>183</ele>
        <time>2011-04-24T14:22:09Z</time>
      </trkpt>
      <trkpt lat="43.65202" lon="3.30642">
        <ele>183</ele>
        <time>2011-04-24T14:22:27Z</time>
      </trkpt>
      <trkpt lat="43.65103" lon="3.30877">
        <ele>176</ele>
        <time>2011-04-24T14:22:57Z</time>
      </trkpt>
      <trkpt lat="43.651" lon="3.30925">
        <ele>174</ele>
        <time>2011-04-24T14:23:38Z</time>
      </trkpt>
      <trkpt lat="43.65065" lon="3.31062">
        <ele>171</ele>
        <time>2011-04-24T14:25:57Z</time>
      </trkpt>
      <trkpt lat="43.65035" lon="3.31162">
        <ele>168</ele>
        <time>2011-04-24T14:26:07Z</time>
      </trkpt>
      <trkpt lat="43.65013" lon="3.3134">
        <ele>164</ele>
        <time>2011-04-24T14:26:25Z</time>
      </trkpt>
      <trkpt lat="43.65015" lon="3.3139">
        <ele>163</ele>
        <time>2011-04-24T14:26:37Z</time>
      </trkpt>
      <trkpt lat="43.6512" lon="3.31602">
        <ele>157</ele>
        <time>2011-04-24T14:27:16Z</time>
      </trkpt>
      <trkpt lat="43.6515" lon="3.3171">
        <ele>156</ele>
        <time>2011-04-24T14:27:29Z</time>
      </trkpt>
      <trkpt lat="43.65197" lon="3.3181">
        <ele>153</ele>
        <time>2011-04-24T14:27:43Z</time>
      </trkpt>
      <trkpt lat="43.65222" lon="3.31918">
        <ele>154</ele>
        <time>2011-04-24T14:27:55Z</time>
      </trkpt>
      <trkpt lat="43.65243" lon="3.31993">
        <ele>153</ele>
        <time>2011-04-24T14:28:04Z</time>
      </trkpt>
      <trkpt lat="43.65243" lon="3.32105">
        <ele>151</ele>
        <time>2011-04-24T14:28:17Z</time>
      </trkpt>
      <trkpt lat="43.65333" lon="3.32417">
        <ele>146</ele>
        <time>2011-04-24T14:28:57Z</time>
      </trkpt>
      <trkpt lat="43.65308" lon="3.32555">
        <ele>142</ele>
        <time>2011-04-24T14:29:31Z</time>
      </trkpt>
      <trkpt lat="43.65337" lon="3.32762">
        <ele>139</ele>
        <time>2011-04-24T14:30:04Z</time>
      </trkpt>
      <trkpt lat="43.65355" lon="3.32862">
        <ele>139</ele>
        <time>2011-04-24T14:30:22Z</time>
      </trkpt>
      <trkpt lat="43.6538" lon="3.32907">
        <ele>139</ele>
        <time>2011-04-24T14:30:35Z</time>
      </trkpt>
      <trkpt lat="43.65407" lon="3.32953">
        <ele>137</ele>
        <time>2011-04-24T14:30:58Z</time>
      </trkpt>
      <trkpt lat="43.65437" lon="3.32963">
        <ele>144</ele>
        <time>2011-04-24T14:31:12Z</time>
      </trkpt>
      <trkpt lat="43.65452" lon="3.32987">
        <ele>144</ele>
        <time>2011-04-24T14:31:22Z</time>
      </trkpt>
      <trkpt lat="43.6547" lon="3.32988">
        <ele>146</ele>
        <time>2011-04-24T14:31:36Z</time>
      </trkpt>
      <trkpt lat="43.6549" lon="3.33018">
        <ele>144</ele>
        <time>2011-04-24T14:31:54Z</time>
      </trkpt>
      <trkpt lat="43.65503" lon="3.33048">
        <ele>152</ele>
        <time>2011-04-24T14:32:05Z</time>
      </trkpt>
      <trkpt lat="43.6552" lon="3.33082">
        <ele>150</ele>
        <time>2011-04-24T14:32:15Z</time>
      </trkpt>
      <trkpt lat="43.65537" lon="3.33093">
        <ele>147</ele>
        <time>2011-04-24T14:32:32Z</time>
      </trkpt>
      <trkpt lat="43.6555" lon="3.33118">
        <ele>147</ele>
        <time>2011-04-24T14:32:49Z</time>
      </trkpt>
      <trkpt lat="43.65567" lon="3.33128">
        <ele>147</ele>
        <time>2011-04-24T14:32:56Z</time>
      </trkpt>
      <trkpt lat="43.65585" lon="3.33163">
        <ele>147</ele>
        <time>2011-04-24T14:33:03Z</time>
      </trkpt>
      <trkpt lat="43.65623" lon="3.33215">
        <ele>147</ele>
        <time>2011-04-24T14:33:28Z</time>
      </trkpt>
      <trkpt lat="43.6564" lon="3.33238">
        <ele>147</ele>
        <time>2011-04-24T14:33:36Z</time>
      </trkpt>
      <trkpt lat="43.65635" lon="3.33262">
        <ele>140</ele>
        <time>2011-04-24T14:33:43Z</time>
      </trkpt>
      <trkpt lat="43.65672" lon="3.3333">
        <ele>139</ele>
        <time>2011-04-24T14:34:03Z</time>
      </trkpt>
      <trkpt lat="43.65703" lon="3.33347">
        <ele>143</ele>
        <time>2011-04-24T14:34:13Z</time>
      </trkpt>
      <trkpt lat="43.65723" lon="3.33382">
        <ele>143</ele>
        <time>2011-04-24T14:34:22Z</time>
      </trkpt>
      <trkpt lat="43.6574" lon="3.33392">
        <ele>143</ele>
        <time>2011-04-24T14:34:34Z</time>
      </trkpt>
      <trkpt lat="43.65757" lon="3.33413">
        <ele>145</ele>
        <time>2011-04-24T14:34:49Z</time>
      </trkpt>
      <trkpt lat="43.65813" lon="3.3343">
        <ele>144</ele>
        <time>2011-04-24T14:35:03Z</time>
      </trkpt>
      <trkpt lat="43.65838" lon="3.33442">
        <ele>146</ele>
        <time>2011-04-24T14:35:37Z</time>
      </trkpt>
      <trkpt lat="43.65855" lon="3.33437">
        <ele>146</ele>
        <time>2011-04-24T14:36:41Z</time>
      </trkpt>
      <trkpt lat="43.65885" lon="3.33438">
        <ele>147</ele>
        <time>2011-04-24T14:37:23Z</time>
      </trkpt>
      <trkpt lat="43.65912" lon="3.3348">
        <ele>145</ele>
        <time>2011-04-24T14:38:04Z</time>
      </trkpt>
      <trkpt lat="43.65928" lon="3.33515">
        <ele>146</ele>
        <time>2011-04-24T14:38:19Z</time>
      </trkpt>
      <trkpt lat="43.65945" lon="3.33523">
        <ele>148</ele>
        <time>2011-04-24T14:38:28Z</time>
      </trkpt>
      <trkpt lat="43.65967" lon="3.33513">
        <ele>149</ele>
        <time>2011-04-24T14:38:42Z</time>
      </trkpt>
      <trkpt lat="43.66015" lon="3.33532">
        <ele>154</ele>
        <time>2011-04-24T14:39:09Z</time>
      </trkpt>
      <trkpt lat="43.66048" lon="3.33542">
        <ele>156</ele>
        <time>2011-04-24T14:39:24Z</time>
      </trkpt>
      <trkpt lat="43.66115" lon="3.3356">
        <ele>162</ele>
        <time>2011-04-24T14:39:51Z</time>
      </trkpt>
      <trkpt lat="43.66127" lon="3.33593">
        <ele>154</ele>
        <time>2011-04-24T14:40:00Z</time>
      </trkpt>
      <trkpt lat="43.66212" lon="3.33613">
        <ele>159</ele>
        <time>2011-04-24T14:40:31Z</time>
      </trkpt>
      <trkpt lat="43.66367" lon="3.33605">
        <ele>164</ele>
        <time>2011-04-24T14:41:07Z</time>
      </trkpt>
      <trkpt lat="43.6639" lon="3.336">
        <ele>165</ele>
        <time>2011-04-24T14:41:14Z</time>
      </trkpt>
      <trkpt lat="43.6638" lon="3.33722">
        <ele>152</ele>
        <time>2011-04-24T14:41:27Z</time>
      </trkpt>
      <trkpt lat="43.6635" lon="3.33825">
        <ele>147</ele>
        <time>2011-04-24T14:41:36Z</time>
      </trkpt>
      <trkpt lat="43.66288" lon="3.33888">
        <ele>143</ele>
        <time>2011-04-24T14:41:47Z</time>
      </trkpt>
      <trkpt lat="43.6627" lon="3.3394">
        <ele>145</ele>
        <time>2011-04-24T14:41:55Z</time>
      </trkpt>
      <trkpt lat="43.6621" lon="3.33945">
        <ele>141</ele>
        <time>2011-04-24T14:42:11Z</time>
      </trkpt>
      <trkpt lat="43.66138" lon="3.34018">
        <ele>141</ele>
        <time>2011-04-24T14:42:39Z</time>
      </trkpt>
      <trkpt lat="43.66117" lon="3.34055">
        <ele>141</ele>
        <time>2011-04-24T14:42:52Z</time>
      </trkpt>
      <trkpt lat="43.66113" lon="3.34087">
        <ele>142</ele>
        <time>2011-04-24T14:43:02Z</time>
      </trkpt>
      <trkpt lat="43.66113" lon="3.34122">
        <ele>141</ele>
        <time>2011-04-24T14:44:11Z</time>
      </trkpt>
      <trkpt lat="43.66125" lon="3.34107">
        <ele>142</ele>
        <time>2011-04-24T14:45:51Z</time>
      </trkpt>
      <trkpt lat="43.66125" lon="3.34052">
        <ele>141</ele>
        <time>2011-04-24T14:46:18Z</time>
      </trkpt>
      <trkpt lat="43.66168" lon="3.33988">
        <ele>142</ele>
        <time>2011-04-24T14:46:40Z</time>
      </trkpt>
      <trkpt lat="43.66225" lon="3.33987">
        <ele>143</ele>
        <time>2011-04-24T14:47:09Z</time>
      </trkpt>
      <trkpt lat="43.6625" lon="3.33997">
        <ele>147</ele>
        <time>2011-04-24T14:47:24Z</time>
      </trkpt>
      <trkpt lat="43.66317" lon="3.33977">
        <ele>148</ele>
        <time>2011-04-24T14:48:00Z</time>
      </trkpt>
      <trkpt lat="43.66347" lon="3.33955">
        <ele>152</ele>
        <time>2011-04-24T14:48:19Z</time>
      </trkpt>
      <trkpt lat="43.66398" lon="3.3394">
        <ele>153</ele>
        <time>2011-04-24T14:48:39Z</time>
      </trkpt>
      <trkpt lat="43.66422" lon="3.33895">
        <ele>156</ele>
        <time>2011-04-24T14:48:57Z</time>
      </trkpt>
      <trkpt lat="43.66452" lon="3.33882">
        <ele>158</ele>
        <time>2011-04-24T14:49:15Z</time>
      </trkpt>
      <trkpt lat="43.66497" lon="3.3385">
        <ele>161</ele>
        <time>2011-04-24T14:49:35Z</time>
      </trkpt>
      <trkpt lat="43.66532" lon="3.33827">
        <ele>165</ele>
        <time>2011-04-24T14:50:05Z</time>
      </trkpt>
      <trkpt lat="43.66557" lon="3.33828">
        <ele>168</ele>
        <time>2011-04-24T14:50:25Z</time>
      </trkpt>
      <trkpt lat="43.6661" lon="3.33822">
        <ele>178</ele>
        <time>2011-04-24T14:51:31Z</time>
      </trkpt>
      <trkpt lat="43.66627" lon="3.3382">
        <ele>180</ele>
        <time>2011-04-24T14:52:57Z</time>
      </trkpt>
      <trkpt lat="43.66645" lon="3.33818">
        <ele>182</ele>
        <time>2011-04-24T14:53:19Z</time>
      </trkpt>
      <trkpt lat="43.6666" lon="3.3379">
        <ele>181</ele>
        <time>2011-04-24T14:53:31Z</time>
      </trkpt>
      <trkpt lat="43.6668" lon="3.3377">
        <ele>189</ele>
        <time>2011-04-24T14:53:43Z</time>
      </trkpt>
      <trkpt lat="43.66695" lon="3.33742">
        <ele>184</ele>
        <time>2011-04-24T14:53:58Z</time>
      </trkpt>
      <trkpt lat="43.66762" lon="3.33672">
        <ele>187</ele>
        <time>2011-04-24T14:54:22Z</time>
      </trkpt>
      <trkpt lat="43.66775" lon="3.3365">
        <ele>185</ele>
        <time>2011-04-24T14:54:45Z</time>
      </trkpt>
      <trkpt lat="43.66777" lon="3.33605">
        <ele>184</ele>
        <time>2011-04-24T14:55:02Z</time>
      </trkpt>
      <trkpt lat="43.66785" lon="3.33578">
        <ele>183</ele>
        <time>2011-04-24T14:55:10Z</time>
      </trkpt>
      <trkpt lat="43.66822" lon="3.33572">
        <ele>185</ele>
        <time>2011-04-24T14:55:34Z</time>
      </trkpt>
      <trkpt lat="43.66855" lon="3.33562">
        <ele>185</ele>
        <time>2011-04-24T14:55:52Z</time>
      </trkpt>
      <trkpt lat="43.66882" lon="3.33562">
        <ele>185</ele>
        <time>2011-04-24T14:56:07Z</time>
      </trkpt>
      <trkpt lat="43.66913" lon="3.33552">
        <ele>185</ele>
        <time>2011-04-24T14:56:21Z</time>
      </trkpt>
      <trkpt lat="43.66947" lon="3.33553">
        <ele>182</ele>
        <time>2011-04-24T14:56:36Z</time>
      </trkpt>
      <trkpt lat="43.66972" lon="3.33557">
        <ele>182</ele>
        <time>2011-04-24T14:56:46Z</time>
      </trkpt>
      <trkpt lat="43.6701" lon="3.33567">
        <ele>179</ele>
        <time>2011-04-24T14:57:01Z</time>
      </trkpt>
      <trkpt lat="43.67038" lon="3.3353">
        <ele>176</ele>
        <time>2011-04-24T14:57:13Z</time>
      </trkpt>
      <trkpt lat="43.67175" lon="3.33493">
        <ele>163</ele>
        <time>2011-04-24T14:57:34Z</time>
      </trkpt>
      <trkpt lat="43.67223" lon="3.33522">
        <ele>161</ele>
        <time>2011-04-24T14:57:47Z</time>
      </trkpt>
      <trkpt lat="43.6727" lon="3.33517">
        <ele>156</ele>
        <time>2011-04-24T14:57:58Z</time>
      </trkpt>
      <trkpt lat="43.67297" lon="3.33537">
        <ele>155</ele>
        <time>2011-04-24T14:58:05Z</time>
      </trkpt>
      <trkpt lat="43.67325" lon="3.33557">
        <ele>155</ele>
        <time>2011-04-24T14:58:15Z</time>
      </trkpt>
      <trkpt lat="43.67352" lon="3.33602">
        <ele>156</ele>
        <time>2011-04-24T14:58:29Z</time>
      </trkpt>
      <trkpt lat="43.67368" lon="3.33625">
        <ele>156</ele>
        <time>2011-04-24T14:58:42Z</time>
      </trkpt>
      <trkpt lat="43.67423" lon="3.33627">
        <ele>150</ele>
        <time>2011-04-24T14:59:00Z</time>
      </trkpt>
      <trkpt lat="43.6746" lon="3.33618">
        <ele>149</ele>
        <time>2011-04-24T14:59:08Z</time>
      </trkpt>
      <trkpt lat="43.67492" lon="3.33628">
        <ele>148</ele>
        <time>2011-04-24T14:59:15Z</time>
      </trkpt>
      <trkpt lat="43.67502" lon="3.3367">
        <ele>148</ele>
        <time>2011-04-24T14:59:27Z</time>
      </trkpt>
      <trkpt lat="43.67532" lon="3.33722">
        <ele>149</ele>
        <time>2011-04-24T14:59:38Z</time>
      </trkpt>
      <trkpt lat="43.67535" lon="3.33755">
        <ele>152</ele>
        <time>2011-04-24T14:59:49Z</time>
      </trkpt>
      <trkpt lat="43.67545" lon="3.33787">
        <ele>153</ele>
        <time>2011-04-24T15:00:07Z</time>
      </trkpt>
      <trkpt lat="43.6754" lon="3.33808">
        <ele>153</ele>
        <time>2011-04-24T15:00:18Z</time>
      </trkpt>
      <trkpt lat="43.67548" lon="3.33823">
        <ele>154</ele>
        <time>2011-04-24T15:00:58Z</time>
      </trkpt>
      <trkpt lat="43.67558" lon="3.3386">
        <ele>156</ele>
        <time>2011-04-24T15:01:26Z</time>
      </trkpt>
      <trkpt lat="43.67557" lon="3.33897">
        <ele>157</ele>
        <time>2011-04-24T15:01:38Z</time>
      </trkpt>
      <trkpt lat="43.67572" lon="3.33965">
        <ele>155</ele>
        <time>2011-04-24T15:02:11Z</time>
      </trkpt>
      <trkpt lat="43.67633" lon="3.34052">
        <ele>149</ele>
        <time>2011-04-24T15:02:26Z</time>
      </trkpt>
      <trkpt lat="43.67693" lon="3.34087">
        <ele>142</ele>
        <time>2011-04-24T15:02:37Z</time>
      </trkpt>
      <trkpt lat="43.67777" lon="3.34252">
        <ele>130</ele>
        <time>2011-04-24T15:02:58Z</time>
      </trkpt>
      <trkpt lat="43.67777" lon="3.34288">
        <ele>129</ele>
        <time>2011-04-24T15:03:05Z</time>
      </trkpt>
      <trkpt lat="43.67778" lon="3.34385">
        <ele>129</ele>
        <time>2011-04-24T15:03:26Z</time>
      </trkpt>
      <trkpt lat="43.67772" lon="3.34432">
        <ele>130</ele>
        <time>2011-04-24T15:03:34Z</time>
      </trkpt>
      <trkpt lat="43.67757" lon="3.3447">
        <ele>129</ele>
        <time>2011-04-24T15:03:45Z</time>
      </trkpt>
      <trkpt lat="43.6773" lon="3.34493">
        <ele>133</ele>
        <time>2011-04-24T15:04:06Z</time>
      </trkpt>
      <trkpt lat="43.67685" lon="3.3452">
        <ele>135</ele>
        <time>2011-04-24T15:04:30Z</time>
      </trkpt>
      <trkpt lat="43.67658" lon="3.34552">
        <ele>137</ele>
        <time>2011-04-24T15:04:44Z</time>
      </trkpt>
      <trkpt lat="43.6764" lon="3.34582">
        <ele>137</ele>
        <time>2011-04-24T15:04:54Z</time>
      </trkpt>
      <trkpt lat="43.67577" lon="3.34622">
        <ele>137</ele>
        <time>2011-04-24T15:05:24Z</time>
      </trkpt>
      <trkpt lat="43.67555" lon="3.3466">
        <ele>137</ele>
        <time>2011-04-24T15:05:38Z</time>
      </trkpt>
      <trkpt lat="43.6752" lon="3.34725">
        <ele>139</ele>
        <time>2011-04-24T15:05:58Z</time>
      </trkpt>
      <trkpt lat="43.6751" lon="3.3484">
        <ele>139</ele>
        <time>2011-04-24T15:06:18Z</time>
      </trkpt>
      <trkpt lat="43.67492" lon="3.34878">
        <ele>144</ele>
        <time>2011-04-24T15:06:27Z</time>
      </trkpt>
      <trkpt lat="43.67457" lon="3.34907">
        <ele>146</ele>
        <time>2011-04-24T15:06:45Z</time>
      </trkpt>
      <trkpt lat="43.67443" lon="3.35003">
        <ele>139</ele>
        <time>2011-04-24T15:07:05Z</time>
      </trkpt>
      <trkpt lat="43.67443" lon="3.3507">
        <ele>138</ele>
        <time>2011-04-24T15:07:18Z</time>
      </trkpt>
      <trkpt lat="43.6743" lon="3.35122">
        <ele>137</ele>
        <time>2011-04-24T15:07:27Z</time>
      </trkpt>
      <trkpt lat="43.67402" lon="3.35163">
        <ele>138</ele>
        <time>2011-04-24T15:07:36Z</time>
      </trkpt>
      <trkpt lat="43.67387" lon="3.35203">
        <ele>138</ele>
        <time>2011-04-24T15:07:47Z</time>
      </trkpt>
      <trkpt lat="43.6734" lon="3.3525">
        <ele>139</ele>
        <time>2011-04-24T15:08:02Z</time>
      </trkpt>
      <trkpt lat="43.67263" lon="3.35318">
        <ele>140</ele>
        <time>2011-04-24T15:08:34Z</time>
      </trkpt>
      <trkpt lat="43.67235" lon="3.35327">
        <ele>141</ele>
        <time>2011-04-24T15:08:45Z</time>
      </trkpt>
      <trkpt lat="43.67192" lon="3.3532">
        <ele>140</ele>
        <time>2011-04-24T15:09:11Z</time>
      </trkpt>
      <trkpt lat="43.67182" lon="3.35345">
        <ele>140</ele>
        <time>2011-04-24T15:09:25Z</time>
      </trkpt>
      <trkpt lat="43.67173" lon="3.35322">
        <ele>140</ele>
        <time>2011-04-24T15:09:44Z</time>
      </trkpt>
      <trkpt lat="43.67095" lon="3.35322">
        <ele>144</ele>
        <time>2011-04-24T15:10:25Z</time>
      </trkpt>
      <trkpt lat="43.6705" lon="3.35338">
        <ele>143</ele>
        <time>2011-04-24T15:10:40Z</time>
      </trkpt>
      <trkpt lat="43.67008" lon="3.35367">
        <ele>143</ele>
        <time>2011-04-24T15:10:52Z</time>
      </trkpt>
      <trkpt lat="43.67037" lon="3.3541">
        <ele>142</ele>
        <time>2011-04-24T15:11:11Z</time>
      </trkpt>
      <trkpt lat="43.67047" lon="3.35453">
        <ele>143</ele>
        <time>2011-04-24T15:11:26Z</time>
      </trkpt>
      <trkpt lat="43.67038" lon="3.35483">
        <ele>143</ele>
        <time>2011-04-24T15:11:35Z</time>
      </trkpt>
      <trkpt lat="43.67048" lon="3.35462">
        <ele>143</ele>
        <time>2011-04-24T15:12:06Z</time>
      </trkpt>
      <trkpt lat="43.67062" lon="3.35467">
        <ele>143</ele>
        <time>2011-04-24T15:12:30Z</time>
      </trkpt>
      <trkpt lat="43.67095" lon="3.35482">
        <ele>146</ele>
        <time>2011-04-24T15:12:48Z</time>
      </trkpt>
      <trkpt lat="43.6709" lon="3.35568">
        <ele>148</ele>
        <time>2011-04-24T15:13:19Z</time>
      </trkpt>
      <trkpt lat="43.67142" lon="3.35632">
        <ele>154</ele>
        <time>2011-04-24T15:14:03Z</time>
      </trkpt>
      <trkpt lat="43.6715" lon="3.35662">
        <ele>156</ele>
        <time>2011-04-24T15:14:20Z</time>
      </trkpt>
      <trkpt lat="43.67138" lon="3.35685">
        <ele>158</ele>
        <time>2011-04-24T15:14:31Z</time>
      </trkpt>
      <trkpt lat="43.67132" lon="3.3577">
        <ele>164</ele>
        <time>2011-04-24T15:15:03Z</time>
      </trkpt>
      <trkpt lat="43.67125" lon="3.35793">
        <ele>164</ele>
        <time>2011-04-24T15:37:06Z</time>
      </trkpt>
      <trkpt lat="43.67102" lon="3.35785">
        <ele>163</ele>
        <time>2011-04-24T15:37:26Z</time>
      </trkpt>
      <trkpt lat="43.67053" lon="3.3578">
        <ele>159</ele>
        <time>2011-04-24T15:37:35Z</time>
      </trkpt>
      <trkpt lat="43.6704" lon="3.35802">
        <ele>159</ele>
        <time>2011-04-24T15:38:26Z</time>
      </trkpt>
      <trkpt lat="43.66988" lon="3.35842">
        <ele>162</ele>
        <time>2011-04-24T15:38:45Z</time>
      </trkpt>
      <trkpt lat="43.66875" lon="3.35808">
        <ele>150</ele>
        <time>2011-04-24T15:39:13Z</time>
      </trkpt>
      <trkpt lat="43.66803" lon="3.35805">
        <ele>142</ele>
        <time>2011-04-24T15:39:25Z</time>
      </trkpt>
      <trkpt lat="43.66755" lon="3.35778">
        <ele>140</ele>
        <time>2011-04-24T15:39:36Z</time>
      </trkpt>
      <trkpt lat="43.66777" lon="3.35792">
        <ele>141</ele>
        <time>2011-04-24T15:41:30Z</time>
      </trkpt>
      <trkpt lat="43.66805" lon="3.35803">
        <ele>142</ele>
        <time>2011-04-24T15:41:41Z</time>
      </trkpt>
      <trkpt lat="43.66835" lon="3.35787">
        <ele>147</ele>
        <time>2011-04-24T15:41:55Z</time>
      </trkpt>
      <trkpt lat="43.66865" lon="3.358">
        <ele>149</ele>
        <time>2011-04-24T15:42:15Z</time>
      </trkpt>
      <trkpt lat="43.66882" lon="3.35812">
        <ele>150</ele>
        <time>2011-04-24T15:42:27Z</time>
      </trkpt>
      <trkpt lat="43.66905" lon="3.35815">
        <ele>152</ele>
        <time>2011-04-24T15:42:43Z</time>
      </trkpt>
      <trkpt lat="43.66938" lon="3.35827">
        <ele>156</ele>
        <time>2011-04-24T15:43:01Z</time>
      </trkpt>
      <trkpt lat="43.6699" lon="3.35842">
        <ele>161</ele>
        <time>2011-04-24T15:43:27Z</time>
      </trkpt>
      <trkpt lat="43.67015" lon="3.35823">
        <ele>160</ele>
        <time>2011-04-24T15:43:45Z</time>
      </trkpt>
      <trkpt lat="43.6699" lon="3.35837">
        <ele>161</ele>
        <time>2011-04-24T15:56:07Z</time>
      </trkpt>
      <trkpt lat="43.66872" lon="3.35805">
        <ele>149</ele>
        <time>2011-04-24T15:56:32Z</time>
      </trkpt>
      <trkpt lat="43.66833" lon="3.35788">
        <ele>142</ele>
        <time>2011-04-24T15:56:37Z</time>
      </trkpt>
      <trkpt lat="43.66785" lon="3.35795">
        <ele>141</ele>
        <time>2011-04-24T15:56:46Z</time>
      </trkpt>
      <trkpt lat="43.6676" lon="3.35772">
        <ele>139</ele>
        <time>2011-04-24T15:56:57Z</time>
      </trkpt>
      <trkpt lat="43.66677" lon="3.3587">
        <ele>141</ele>
        <time>2011-04-24T15:57:27Z</time>
      </trkpt>
      <trkpt lat="43.6666" lon="3.35898">
        <ele>139</ele>
        <time>2011-04-24T15:57:41Z</time>
      </trkpt>
      <trkpt lat="43.66607" lon="3.35992">
        <ele>139</ele>
        <time>2011-04-24T15:58:16Z</time>
      </trkpt>
      <trkpt lat="43.66587" lon="3.36012">
        <ele>139</ele>
        <time>2011-04-24T15:58:27Z</time>
      </trkpt>
      <trkpt lat="43.6659" lon="3.36052">
        <ele>140</ele>
        <time>2011-04-24T15:58:38Z</time>
      </trkpt>
      <trkpt lat="43.66612" lon="3.36082">
        <ele>141</ele>
        <time>2011-04-24T15:58:53Z</time>
      </trkpt>
      <trkpt lat="43.66628" lon="3.36128">
        <ele>142</ele>
        <time>2011-04-24T15:59:04Z</time>
      </trkpt>
      <trkpt lat="43.66618" lon="3.36165">
        <ele>142</ele>
        <time>2011-04-24T15:59:20Z</time>
      </trkpt>
      <trkpt lat="43.66632" lon="3.3621">
        <ele>143</ele>
        <time>2011-04-24T15:59:30Z</time>
      </trkpt>
      <trkpt lat="43.66627" lon="3.36233">
        <ele>143</ele>
        <time>2011-04-24T15:59:40Z</time>
      </trkpt>
      <trkpt lat="43.66605" lon="3.36248">
        <ele>142</ele>
        <time>2011-04-24T16:00:00Z</time>
      </trkpt>
      <trkpt lat="43.66622" lon="3.36237">
        <ele>143</ele>
        <time>2011-04-24T16:00:13Z</time>
      </trkpt>
      <trkpt lat="43.66623" lon="3.36265">
        <ele>145</ele>
        <time>2011-04-24T16:00:26Z</time>
      </trkpt>
      <trkpt lat="43.66602" lon="3.3627">
        <ele>144</ele>
        <time>2011-04-24T16:00:39Z</time>
      </trkpt>
      <trkpt lat="43.66567" lon="3.36277">
        <ele>141</ele>
        <time>2011-04-24T16:00:55Z</time>
      </trkpt>
      <trkpt lat="43.66543" lon="3.36323">
        <ele>141</ele>
        <time>2011-04-24T16:01:06Z</time>
      </trkpt>
      <trkpt lat="43.66545" lon="3.36367">
        <ele>143</ele>
        <time>2011-04-24T16:01:21Z</time>
      </trkpt>
      <trkpt lat="43.66552" lon="3.36412">
        <ele>143</ele>
        <time>2011-04-24T16:01:31Z</time>
      </trkpt>
      <trkpt lat="43.66513" lon="3.36502">
        <ele>146</ele>
        <time>2011-04-24T16:01:54Z</time>
      </trkpt>
      <trkpt lat="43.66495" lon="3.36525">
        <ele>141</ele>
        <time>2011-04-24T16:02:06Z</time>
      </trkpt>
      <trkpt lat="43.66485" lon="3.3659">
        <ele>143</ele>
        <time>2011-04-24T16:02:23Z</time>
      </trkpt>
      <trkpt lat="43.66455" lon="3.36652">
        <ele>144</ele>
        <time>2011-04-24T16:02:41Z</time>
      </trkpt>
      <trkpt lat="43.66438" lon="3.36715">
        <ele>147</ele>
        <time>2011-04-24T16:02:52Z</time>
      </trkpt>
      <trkpt lat="43.66427" lon="3.36765">
        <ele>149</ele>
        <time>2011-04-24T16:03:04Z</time>
      </trkpt>
      <trkpt lat="43.66417" lon="3.36822">
        <ele>148</ele>
        <time>2011-04-24T16:03:15Z</time>
      </trkpt>
      <trkpt lat="43.66387" lon="3.36898">
        <ele>146</ele>
        <time>2011-04-24T16:03:54Z</time>
      </trkpt>
      <trkpt lat="43.66352" lon="3.36993">
        <ele>145</ele>
        <time>2011-04-24T16:04:26Z</time>
      </trkpt>
      <trkpt lat="43.6633" lon="3.37023">
        <ele>142</ele>
        <time>2011-04-24T16:04:42Z</time>
      </trkpt>
      <trkpt lat="43.66307" lon="3.37048">
        <ele>142</ele>
        <time>2011-04-24T16:04:54Z</time>
      </trkpt>
      <trkpt lat="43.66287" lon="3.3708">
        <ele>142</ele>
        <time>2011-04-24T16:05:06Z</time>
      </trkpt>
      <trkpt lat="43.66285" lon="3.37132">
        <ele>143</ele>
        <time>2011-04-24T16:05:21Z</time>
      </trkpt>
      <trkpt lat="43.66288" lon="3.37182">
        <ele>142</ele>
        <time>2011-04-24T16:05:56Z</time>
      </trkpt>
      <trkpt lat="43.66273" lon="3.37253">
        <ele>142</ele>
        <time>2011-04-24T16:06:13Z</time>
      </trkpt>
      <trkpt lat="43.66262" lon="3.37327">
        <ele>143</ele>
        <time>2011-04-24T16:06:26Z</time>
      </trkpt>
      <trkpt lat="43.6625" lon="3.37373">
        <ele>143</ele>
        <time>2011-04-24T16:06:41Z</time>
      </trkpt>
      <trkpt lat="43.66263" lon="3.37453">
        <ele>143</ele>
        <time>2011-04-24T16:06:59Z</time>
      </trkpt>
      <trkpt lat="43.66262" lon="3.3751">
        <ele>141</ele>
        <time>2011-04-24T16:07:15Z</time>
      </trkpt>
      <trkpt lat="43.66277" lon="3.37558">
        <ele>143</ele>
        <time>2011-04-24T16:07:30Z</time>
      </trkpt>
      <trkpt lat="43.66263" lon="3.37642">
        <ele>144</ele>
        <time>2011-04-24T16:07:52Z</time>
      </trkpt>
      <trkpt lat="43.66272" lon="3.37685">
        <ele>146</ele>
        <time>2011-04-24T16:08:04Z</time>
      </trkpt>
      <trkpt lat="43.66263" lon="3.37715">
        <ele>146</ele>
        <time>2011-04-24T16:08:15Z</time>
      </trkpt>
      <trkpt lat="43.66252" lon="3.37772">
        <ele>146</ele>
        <time>2011-04-24T16:08:37Z</time>
      </trkpt>
      <trkpt lat="43.66228" lon="3.37803">
        <ele>141</ele>
        <time>2011-04-24T16:09:02Z</time>
      </trkpt>
      <trkpt lat="43.6621" lon="3.37842">
        <ele>142</ele>
        <time>2011-04-24T16:09:11Z</time>
      </trkpt>
      <trkpt lat="43.66207" lon="3.37898">
        <ele>144</ele>
        <time>2011-04-24T16:09:26Z</time>
      </trkpt>
      <trkpt lat="43.66203" lon="3.3792">
        <ele>149</ele>
        <time>2011-04-24T16:09:33Z</time>
      </trkpt>
      <trkpt lat="43.66182" lon="3.3793">
        <ele>145</ele>
        <time>2011-04-24T16:09:51Z</time>
      </trkpt>
      <trkpt lat="43.66173" lon="3.37963">
        <ele>149</ele>
        <time>2011-04-24T16:10:17Z</time>
      </trkpt>
      <trkpt lat="43.66163" lon="3.38">
        <ele>147</ele>
        <time>2011-04-24T16:10:42Z</time>
      </trkpt>
      <trkpt lat="43.66172" lon="3.38032">
        <ele>156</ele>
        <time>2011-04-24T16:10:58Z</time>
      </trkpt>
      <trkpt lat="43.6618" lon="3.38058">
        <ele>158</ele>
        <time>2011-04-24T16:11:15Z</time>
      </trkpt>
      <trkpt lat="43.66183" lon="3.38107">
        <ele>163</ele>
        <time>2011-04-24T16:12:36Z</time>
      </trkpt>
      <trkpt lat="43.66155" lon="3.38162">
        <ele>153</ele>
        <time>2011-04-24T16:12:59Z</time>
      </trkpt>
      <trkpt lat="43.66152" lon="3.38252">
        <ele>155</ele>
        <time>2011-04-24T16:13:25Z</time>
      </trkpt>
      <trkpt lat="43.66142" lon="3.3829">
        <ele>151</ele>
        <time>2011-04-24T16:13:34Z</time>
      </trkpt>
      <trkpt lat="43.66137" lon="3.38357">
        <ele>151</ele>
        <time>2011-04-24T16:13:48Z</time>
      </trkpt>
      <trkpt lat="43.66123" lon="3.38373">
        <ele>150</ele>
        <time>2011-04-24T16:13:56Z</time>
      </trkpt>
      <trkpt lat="43.66113" lon="3.38405">
        <ele>149</ele>
        <time>2011-04-24T16:14:11Z</time>
      </trkpt>
      <trkpt lat="43.66102" lon="3.38425">
        <ele>149</ele>
        <time>2011-04-24T16:14:26Z</time>
      </trkpt>
      <trkpt lat="43.661" lon="3.38498">
        <ele>148</ele>
        <time>2011-04-24T16:14:40Z</time>
      </trkpt>
      <trkpt lat="43.66077" lon="3.38632">
        <ele>141</ele>
        <time>2011-04-24T16:15:10Z</time>
      </trkpt>
      <trkpt lat="43.66063" lon="3.3871">
        <ele>145</ele>
        <time>2011-04-24T16:15:32Z</time>
      </trkpt>
      <trkpt lat="43.66068" lon="3.3875">
        <ele>150</ele>
        <time>2011-04-24T16:15:49Z</time>
      </trkpt>
      <trkpt lat="43.66063" lon="3.38777">
        <ele>150</ele>
        <time>2011-04-24T16:16:02Z</time>
      </trkpt>
      <trkpt lat="43.66057" lon="3.38792">
        <ele>150</ele>
        <time>2011-04-24T16:17:30Z</time>
      </trkpt>
      <trkpt lat="43.66032" lon="3.38847">
        <ele>150</ele>
        <time>2011-04-24T16:18:22Z</time>
      </trkpt>
      <trkpt lat="43.66" lon="3.38858">
        <ele>142</ele>
        <time>2011-04-24T16:18:32Z</time>
      </trkpt>
      <trkpt lat="43.6597" lon="3.38952">
        <ele>142</ele>
        <time>2011-04-24T16:18:51Z</time>
      </trkpt>
      <trkpt lat="43.6597" lon="3.38995">
        <ele>144</ele>
        <time>2011-04-24T16:19:01Z</time>
      </trkpt>
      <trkpt lat="43.65978" lon="3.3903">
        <ele>145</ele>
        <time>2011-04-24T16:19:52Z</time>
      </trkpt>
      <trkpt lat="43.6596" lon="3.39095">
        <ele>147</ele>
        <time>2011-04-24T16:20:17Z</time>
      </trkpt>
      <trkpt lat="43.65958" lon="3.39148">
        <ele>150</ele>
        <time>2011-04-24T16:20:37Z</time>
      </trkpt>
      <trkpt lat="43.65913" lon="3.39172">
        <ele>146</ele>
        <time>2011-04-24T16:20:59Z</time>
      </trkpt>
      <trkpt lat="43.65897" lon="3.39215">
        <ele>145</ele>
        <time>2011-04-24T16:21:16Z</time>
      </trkpt>
      <trkpt lat="43.65872" lon="3.39253">
        <ele>146</ele>
        <time>2011-04-24T16:21:50Z</time>
      </trkpt>
      <trkpt lat="43.65872" lon="3.39288">
        <ele>147</ele>
        <time>2011-04-24T16:23:10Z</time>
      </trkpt>
      <trkpt lat="43.65865" lon="3.3933">
        <ele>147</ele>
        <time>2011-04-24T16:23:27Z</time>
      </trkpt>
      <trkpt lat="43.65845" lon="3.39398">
        <ele>150</ele>
        <time>2011-04-24T16:23:50Z</time>
      </trkpt>
      <trkpt lat="43.65835" lon="3.39463">
        <ele>158</ele>
        <time>2011-04-24T16:24:06Z</time>
      </trkpt>
      <trkpt lat="43.65815" lon="3.39492">
        <ele>148</ele>
        <time>2011-04-24T16:24:29Z</time>
      </trkpt>
      <trkpt lat="43.65795" lon="3.39508">
        <ele>148</ele>
        <time>2011-04-24T16:40:38Z</time>
      </trkpt>
      <trkpt lat="43.65752" lon="3.3954">
        <ele>145</ele>
        <time>2011-04-24T16:40:57Z</time>
      </trkpt>
      <trkpt lat="43.65723" lon="3.39592">
        <ele>140</ele>
        <time>2011-04-24T16:41:17Z</time>
      </trkpt>
      <trkpt lat="43.65713" lon="3.39618">
        <ele>140</ele>
        <time>2011-04-24T16:41:27Z</time>
      </trkpt>
      <trkpt lat="43.65732" lon="3.39625">
        <ele>140</ele>
        <time>2011-04-24T16:41:50Z</time>
      </trkpt>
      <trkpt lat="43.65773" lon="3.39627">
        <ele>148</ele>
        <time>2011-04-24T16:42:29Z</time>
      </trkpt>
      <trkpt lat="43.65797" lon="3.39635">
        <ele>151</ele>
        <time>2011-04-24T16:42:49Z</time>
      </trkpt>
      <trkpt lat="43.65813" lon="3.39645">
        <ele>152</ele>
        <time>2011-04-24T16:43:14Z</time>
      </trkpt>
      <trkpt lat="43.65817" lon="3.39628">
        <ele>152</ele>
        <time>2011-04-24T16:43:46Z</time>
      </trkpt>
      <trkpt lat="43.65827" lon="3.39612">
        <ele>155</ele>
        <time>2011-04-24T16:44:16Z</time>
      </trkpt>
      <trkpt lat="43.65873" lon="3.39607">
        <ele>166</ele>
        <time>2011-04-24T16:45:14Z</time>
      </trkpt>
      <trkpt lat="43.6591" lon="3.39602">
        <ele>172</ele>
        <time>2011-04-24T16:46:12Z</time>
      </trkpt>
      <trkpt lat="43.65927" lon="3.39597">
        <ele>177</ele>
        <time>2011-04-24T16:46:24Z</time>
      </trkpt>
      <trkpt lat="43.65942" lon="3.39577">
        <ele>187</ele>
        <time>2011-04-24T16:46:47Z</time>
      </trkpt>
      <trkpt lat="43.65953" lon="3.39563">
        <ele>189</ele>
        <time>2011-04-24T16:47:35Z</time>
      </trkpt>
      <trkpt lat="43.65955" lon="3.39545">
        <ele>190</ele>
        <time>2011-04-24T16:47:57Z</time>
      </trkpt>
      <trkpt lat="43.65963" lon="3.39528">
        <ele>192</ele>
        <time>2011-04-24T16:48:37Z</time>
      </trkpt>
      <trkpt lat="43.65973" lon="3.39515">
        <ele>196</ele>
        <time>2011-04-24T16:49:41Z</time>
      </trkpt>
      <trkpt lat="43.66002" lon="3.3951">
        <ele>209</ele>
        <time>2011-04-24T16:50:33Z</time>
      </trkpt>
      <trkpt lat="43.66017" lon="3.3949">
        <ele>213</ele>
        <time>2011-04-24T16:50:52Z</time>
      </trkpt>
      <trkpt lat="43.66047" lon="3.3948">
        <ele>213</ele>
        <time>2011-04-24T16:51:08Z</time>
      </trkpt>
      <trkpt lat="43.66085" lon="3.39448">
        <ele>221</ele>
        <time>2011-04-24T16:51:25Z</time>
      </trkpt>
      <trkpt lat="43.66115" lon="3.39457">
        <ele>222</ele>
        <time>2011-04-24T16:52:00Z</time>
      </trkpt>
      <trkpt lat="43.661" lon="3.39447">
        <ele>222</ele>
        <time>2011-04-24T16:52:13Z</time>
      </trkpt>
      <trkpt lat="43.66137" lon="3.39477">
        <ele>222</ele>
        <time>2011-04-24T16:52:41Z</time>
      </trkpt>
      <trkpt lat="43.66153" lon="3.39487">
        <ele>222</ele>
        <time>2011-04-24T16:53:17Z</time>
      </trkpt>
      <trkpt lat="43.66323" lon="3.39527">
        <ele>218</ele>
        <time>2011-04-24T16:53:50Z</time>
      </trkpt>
      <trkpt lat="43.66367" lon="3.39515">
        <ele>222</ele>
        <time>2011-04-24T16:53:56Z</time>
      </trkpt>
      <trkpt lat="43.66343" lon="3.39562">
        <ele>221</ele>
        <time>2011-04-24T16:54:12Z</time>
      </trkpt>
      <trkpt lat="43.66337" lon="3.39587">
        <ele>220</ele>
        <time>2011-04-24T16:54:21Z</time>
      </trkpt>
      <trkpt lat="43.66313" lon="3.39605">
        <ele>218</ele>
        <time>2011-04-24T16:54:38Z</time>
      </trkpt>
      <trkpt lat="43.6628" lon="3.39618">
        <ele>217</ele>
        <time>2011-04-24T16:54:52Z</time>
      </trkpt>
      <trkpt lat="43.66255" lon="3.39635">
        <ele>217</ele>
        <time>2011-04-24T16:55:05Z</time>
      </trkpt>
      <trkpt lat="43.66238" lon="3.39637">
        <ele>211</ele>
        <time>2011-04-24T16:56:33Z</time>
      </trkpt>
      <trkpt lat="43.66218" lon="3.39682">
        <ele>216</ele>
        <time>2011-04-24T17:06:05Z</time>
      </trkpt>
      <trkpt lat="43.66178" lon="3.39718">
        <ele>217</ele>
        <time>2011-04-24T17:06:19Z</time>
      </trkpt>
      <trkpt lat="43.6614" lon="3.39715">
        <ele>205</ele>
        <time>2011-04-24T17:06:30Z</time>
      </trkpt>
      <trkpt lat="43.66103" lon="3.39753">
        <ele>213</ele>
        <time>2011-04-24T17:06:42Z</time>
      </trkpt>
      <trkpt lat="43.66058" lon="3.39797">
        <ele>208</ele>
        <time>2011-04-24T17:06:57Z</time>
      </trkpt>
      <trkpt lat="43.66013" lon="3.39845">
        <ele>219</ele>
        <time>2011-04-24T17:07:12Z</time>
      </trkpt>
      <trkpt lat="43.65915" lon="3.3991">
        <ele>213</ele>
        <time>2011-04-24T17:07:39Z</time>
      </trkpt>
      <trkpt lat="43.6589" lon="3.39953">
        <ele>210</ele>
        <time>2011-04-24T17:07:52Z</time>
      </trkpt>
      <trkpt lat="43.65868" lon="3.39947">
        <ele>207</ele>
        <time>2011-04-24T17:08:03Z</time>
      </trkpt>
      <trkpt lat="43.65883" lon="3.3996">
        <ele>210</ele>
        <time>2011-04-24T17:17:40Z</time>
      </trkpt>
      <trkpt lat="43.65892" lon="3.40015">
        <ele>212</ele>
        <time>2011-04-24T17:17:55Z</time>
      </trkpt>
      <trkpt lat="43.65908" lon="3.40067">
        <ele>212</ele>
        <time>2011-04-24T17:18:12Z</time>
      </trkpt>
      <trkpt lat="43.65973" lon="3.40147">
        <ele>218</ele>
        <time>2011-04-24T17:18:40Z</time>
      </trkpt>
      <trkpt lat="43.65992" lon="3.40193">
        <ele>212</ele>
        <time>2011-04-24T17:18:53Z</time>
      </trkpt>
      <trkpt lat="43.66018" lon="3.40327">
        <ele>213</ele>
        <time>2011-04-24T17:19:19Z</time>
      </trkpt>
      <trkpt lat="43.6603" lon="3.40418">
        <ele>206</ele>
        <time>2011-04-24T17:19:30Z</time>
      </trkpt>
      <trkpt lat="43.66047" lon="3.40462">
        <ele>206</ele>
        <time>2011-04-24T17:19:35Z</time>
      </trkpt>
      <trkpt lat="43.66072" lon="3.40473">
        <ele>208</ele>
        <time>2011-04-24T17:19:42Z</time>
      </trkpt>
      <trkpt lat="43.6613" lon="3.40443">
        <ele>210</ele>
        <time>2011-04-24T17:19:57Z</time>
      </trkpt>
      <trkpt lat="43.66163" lon="3.4041">
        <ele>215</ele>
        <time>2011-04-24T17:20:07Z</time>
      </trkpt>
      <trkpt lat="43.66228" lon="3.40472">
        <ele>211</ele>
        <time>2011-04-24T17:20:29Z</time>
      </trkpt>
      <trkpt lat="43.66318" lon="3.40543">
        <ele>213</ele>
        <time>2011-04-24T17:21:04Z</time>
      </trkpt>
      <trkpt lat="43.66333" lon="3.40567">
        <ele>212</ele>
        <time>2011-04-24T17:21:16Z</time>
      </trkpt>
      <trkpt lat="43.66462" lon="3.40632">
        <ele>212</ele>
        <time>2011-04-24T17:22:52Z</time>
      </trkpt>
      <trkpt lat="43.66533" lon="3.4069">
        <ele>197</ele>
        <time>2011-04-24T17:23:02Z</time>
      </trkpt>
      <trkpt lat="43.66707" lon="3.4076">
        <ele>186</ele>
        <time>2011-04-24T17:23:17Z</time>
      </trkpt>
      <trkpt lat="43.6679" lon="3.40873">
        <ele>163</ele>
        <time>2011-04-24T17:23:29Z</time>
      </trkpt>
      <trkpt lat="43.66908" lon="3.40933">
        <ele>147</ele>
        <time>2011-04-24T17:23:49Z</time>
      </trkpt>
      <trkpt lat="43.6694" lon="3.40983">
        <ele>137</ele>
        <time>2011-04-24T17:24:03Z</time>
      </trkpt>
      <trkpt lat="43.66923" lon="3.41035">
        <ele>128</ele>
        <time>2011-04-24T17:24:11Z</time>
      </trkpt>
      <trkpt lat="43.66883" lon="3.40978">
        <ele>140</ele>
        <time>2011-04-24T17:24:23Z</time>
      </trkpt>
      <trkpt lat="43.66683" lon="3.40927">
        <ele>127</ele>
        <time>2011-04-24T17:24:58Z</time>
      </trkpt>
      <trkpt lat="43.668" lon="3.41003">
        <ele>114</ele>
        <time>2011-04-24T17:25:28Z</time>
      </trkpt>
      <trkpt lat="43.66712" lon="3.40963">
        <ele>123</ele>
        <time>2011-04-24T17:25:49Z</time>
      </trkpt>
      <trkpt lat="43.66667" lon="3.4096">
        <ele>121</ele>
        <time>2011-04-24T17:25:55Z</time>
      </trkpt>
      <trkpt lat="43.66602" lon="3.40963">
        <ele>112</ele>
        <time>2011-04-24T17:26:06Z</time>
      </trkpt>
      <trkpt lat="43.66457" lon="3.40935">
        <ele>108</ele>
        <time>2011-04-24T17:26:27Z</time>
      </trkpt>
      <trkpt lat="43.66303" lon="3.40992">
        <ele>106</ele>
        <time>2011-04-24T17:26:48Z</time>
      </trkpt>
      <trkpt lat="43.66243" lon="3.41053">
        <ele>101</ele>
        <time>2011-04-24T17:27:04Z</time>
      </trkpt>
      <trkpt lat="43.66205" lon="3.41063">
        <ele>101</ele>
        <time>2011-04-24T17:27:13Z</time>
      </trkpt>
      <trkpt lat="43.66072" lon="3.40983">
        <ele>107</ele>
        <time>2011-04-24T17:27:46Z</time>
      </trkpt>
      <trkpt lat="43.66023" lon="3.4098">
        <ele>104</ele>
        <time>2011-04-24T17:27:57Z</time>
      </trkpt>
      <trkpt lat="43.65925" lon="3.40923">
        <ele>102</ele>
        <time>2011-04-24T17:28:17Z</time>
      </trkpt>
      <trkpt lat="43.6588" lon="3.40912">
        <ele>103</ele>
        <time>2011-04-24T17:28:22Z</time>
      </trkpt>
      <trkpt lat="43.65832" lon="3.40892">
        <ele>101</ele>
        <time>2011-04-24T17:28:31Z</time>
      </trkpt>
      <trkpt lat="43.6578" lon="3.40822">
        <ele>100</ele>
        <time>2011-04-24T17:28:38Z</time>
      </trkpt>
      <trkpt lat="43.65755" lon="3.40705">
        <ele>100</ele>
        <time>2011-04-24T17:28:51Z</time>
      </trkpt>
      <trkpt lat="43.65728" lon="3.40662">
        <ele>102</ele>
        <time>2011-04-24T17:28:57Z</time>
      </trkpt>
      <trkpt lat="43.65727" lon="3.40627">
        <ele>103</ele>
        <time>2011-04-24T17:29:02Z</time>
      </trkpt>
      <trkpt lat="43.65728" lon="3.4056">
        <ele>103</ele>
        <time>2011-04-24T17:29:20Z</time>
      </trkpt>
      <trkpt lat="43.6572" lon="3.4048">
        <ele>101</ele>
        <time>2011-04-24T17:29:41Z</time>
      </trkpt>
      <trkpt lat="43.65707" lon="3.40408">
        <ele>101</ele>
        <time>2011-04-24T17:29:57Z</time>
      </trkpt>
      <trkpt lat="43.6569" lon="3.40385">
        <ele>101</ele>
        <time>2011-04-24T17:30:06Z</time>
      </trkpt>
      <trkpt lat="43.65688" lon="3.4045">
        <ele>103</ele>
        <time>2011-04-24T17:30:21Z</time>
      </trkpt>
      <trkpt lat="43.65657" lon="3.40638">
        <ele>120</ele>
        <time>2011-04-24T17:31:25Z</time>
      </trkpt>
      <trkpt lat="43.65642" lon="3.40658">
        <ele>121</ele>
        <time>2011-04-24T17:31:37Z</time>
      </trkpt>
      <trkpt lat="43.65625" lon="3.40642">
        <ele>125</ele>
        <time>2011-04-24T17:31:50Z</time>
      </trkpt>
      <trkpt lat="43.6559" lon="3.40473">
        <ele>127</ele>
        <time>2011-04-24T17:32:45Z</time>
      </trkpt>
      <trkpt lat="43.65572" lon="3.40428">
        <ele>141</ele>
        <time>2011-04-24T17:33:03Z</time>
      </trkpt>
      <trkpt lat="43.65555" lon="3.404">
        <ele>138</ele>
        <time>2011-04-24T17:33:13Z</time>
      </trkpt>
      <trkpt lat="43.65515" lon="3.40367">
        <ele>142</ele>
        <time>2011-04-24T17:33:32Z</time>
      </trkpt>
      <trkpt lat="43.6548" lon="3.40328">
        <ele>148</ele>
        <time>2011-04-24T17:33:50Z</time>
      </trkpt>
      <trkpt lat="43.6545" lon="3.40282">
        <ele>150</ele>
        <time>2011-04-24T17:34:38Z</time>
      </trkpt>
      <trkpt lat="43.65385" lon="3.4023">
        <ele>151</ele>
        <time>2011-04-24T17:35:02Z</time>
      </trkpt>
      <trkpt lat="43.65343" lon="3.40208">
        <ele>153</ele>
        <time>2011-04-24T17:35:20Z</time>
      </trkpt>
      <trkpt lat="43.65308" lon="3.402">
        <ele>167</ele>
        <time>2011-04-24T17:35:31Z</time>
      </trkpt>
      <trkpt lat="43.65282" lon="3.40173">
        <ele>170</ele>
        <time>2011-04-24T17:35:38Z</time>
      </trkpt>
      <trkpt lat="43.65277" lon="3.40115">
        <ele>164</ele>
        <time>2011-04-24T17:35:54Z</time>
      </trkpt>
      <trkpt lat="43.65247" lon="3.40033">
        <ele>171</ele>
        <time>2011-04-24T17:36:21Z</time>
      </trkpt>
      <trkpt lat="43.65213" lon="3.4">
        <ele>161</ele>
        <time>2011-04-24T17:36:33Z</time>
      </trkpt>
      <trkpt lat="43.65155" lon="3.3998">
        <ele>178</ele>
        <time>2011-04-24T17:36:50Z</time>
      </trkpt>
      <trkpt lat="43.65128" lon="3.3995">
        <ele>180</ele>
        <time>2011-04-24T17:36:58Z</time>
      </trkpt>
      <trkpt lat="43.65135" lon="3.39897">
        <ele>178</ele>
        <time>2011-04-24T17:37:12Z</time>
      </trkpt>
      <trkpt lat="43.65157" lon="3.3983">
        <ele>174</ele>
        <time>2011-04-24T17:37:25Z</time>
      </trkpt>
      <trkpt lat="43.65147" lon="3.39562">
        <ele>179</ele>
        <time>2011-04-24T17:38:06Z</time>
      </trkpt>
      <trkpt lat="43.65162" lon="3.39482">
        <ele>180</ele>
        <time>2011-04-24T17:38:19Z</time>
      </trkpt>
      <trkpt lat="43.65138" lon="3.39243">
        <ele>181</ele>
        <time>2011-04-24T17:38:52Z</time>
      </trkpt>
      <trkpt lat="43.65093" lon="3.3913">
        <ele>187</ele>
        <time>2011-04-24T17:39:09Z</time>
      </trkpt>
      <trkpt lat="43.64992" lon="3.3906">
        <ele>174</ele>
        <time>2011-04-24T17:39:30Z</time>
      </trkpt>
      <trkpt lat="43.6492" lon="3.39068">
        <ele>170</ele>
        <time>2011-04-24T17:39:40Z</time>
      </trkpt>
      <trkpt lat="43.64905" lon="3.39033">
        <ele>164</ele>
        <time>2011-04-24T17:39:48Z</time>
      </trkpt>
      <trkpt lat="43.64907" lon="3.38967">
        <ele>159</ele>
        <time>2011-04-24T17:40:00Z</time>
      </trkpt>
      <trkpt lat="43.64857" lon="3.3891">
        <ele>153</ele>
        <time>2011-04-24T17:40:12Z</time>
      </trkpt>
      <trkpt lat="43.6481" lon="3.38875">
        <ele>147</ele>
        <time>2011-04-24T17:40:21Z</time>
      </trkpt>
      <trkpt lat="43.64802" lon="3.38833">
        <ele>145</ele>
        <time>2011-04-24T17:40:28Z</time>
      </trkpt>
      <trkpt lat="43.64788" lon="3.3881">
        <ele>144</ele>
        <time>2011-04-24T17:41:29Z</time>
      </trkpt>
      <trkpt lat="43.64792" lon="3.38853">
        <ele>146</ele>
        <time>2011-04-24T17:41:41Z</time>
      </trkpt>
      <trkpt lat="43.64755" lon="3.38908">
        <ele>145</ele>
        <time>2011-04-24T17:41:57Z</time>
      </trkpt>
      <trkpt lat="43.64702" lon="3.38882">
        <ele>144</ele>
        <time>2011-04-24T17:42:07Z</time>
      </trkpt>
      <trkpt lat="43.64652" lon="3.38878">
        <ele>144</ele>
        <time>2011-04-24T17:42:26Z</time>
      </trkpt>
      <trkpt lat="43.64562" lon="3.38818">
        <ele>143</ele>
        <time>2011-04-24T17:42:56Z</time>
      </trkpt>
      <trkpt lat="43.64552" lon="3.38822">
        <ele>143</ele>
        <time>2011-04-24T17:43:23Z</time>
      </trkpt>
      <trkpt lat="43.6455" lon="3.388">
        <ele>143</ele>
        <time>2011-04-24T17:44:23Z</time>
      </trkpt>
      <trkpt lat="43.64565" lon="3.38767">
        <ele>144</ele>
        <time>2011-04-24T17:44:32Z</time>
      </trkpt>
      <trkpt lat="43.6458" lon="3.38727">
        <ele>143</ele>
        <time>2011-04-24T17:44:43Z</time>
      </trkpt>
      <trkpt lat="43.64592" lon="3.38725">
        <ele>142</ele>
        <time>2011-04-24T17:44:48Z</time>
      </trkpt>
      <trkpt lat="43.64585" lon="3.3876">
        <ele>144</ele>
        <time>2011-04-24T17:45:19Z</time>
      </trkpt>
      <trkpt lat="43.64567" lon="3.3879">
        <ele>144</ele>
        <time>2011-04-24T17:45:37Z</time>
      </trkpt>
    </trkseg>
  </trk>
</gpx>